PWSweather.com
Personal Weather Stations
Station Observations
KD5LEN
Ktxnorth1, North Richland Hills, TX 76180

Ktxnorth1North Richland Hills, TX 76180

Lat: 32.885294, Lon: -97.236048

Elevation: 694

Station Type: Vantage Pro 2

http://www.atzer0.net/VWS/root/index.htm

High Low Average
Temperature 48.5°F9.2°C 41.7°F5.4°C 45.1°F7.3°C
Dew Point 41.6°F5.3°C 30.1°F-1.1°C 38.2°F3.4°C
Winds 14.0 mph 22.5 kmh Calm Calm 5.0 mph ENE8.0 kmh ENE
Wind Gusts 16.0 mph25.7 kmh 3.0 mph4.8 kmh 10.0 mph16.1 kmh
Humidity 89% 49% 78%
Pressure 30.28 in1025.4 mb 30.14 in1020.7 mb -
Precipitation 0.00 in0.0 mm - -
Hour Temp Dew Point Humidity Winds Wind Gusts Pressure Precip Precip Rate Daily Precip Total
12:00 AM 48.3°F9.1°C 31.0°F-0.6°C 51% 5.0 mph NE8.0 kmh NE 9.0 mph14.5 kmh 30.24 in1024.0 mb 0.00 in0.0 mm 0.00 in0.0 mm 0.00 in0.0 mm
12:02 AM 48.3°F9.1°C 30.5°F-0.8°C 50% 7.0 mph ENE11.3 kmh ENE 10.0 mph16.1 kmh 30.24 in1024.0 mb 0.00 in0.0 mm 0.00 in0.0 mm 0.00 in0.0 mm
12:04 AM 48.3°F9.1°C 30.5°F-0.8°C 50% 4.0 mph NE6.4 kmh NE 12.0 mph19.3 kmh 30.23 in1023.7 mb 0.00 in0.0 mm 0.00 in0.0 mm 0.00 in0.0 mm
12:06 AM 48.3°F9.1°C 30.5°F-0.8°C 50% 5.0 mph ENE8.0 kmh ENE 12.0 mph19.3 kmh 30.23 in1023.7 mb 0.00 in0.0 mm 0.00 in0.0 mm 0.00 in0.0 mm
12:08 AM 48.3°F9.1°C 30.5°F-0.8°C 50% 3.0 mph NE4.8 kmh NE 12.0 mph19.3 kmh 30.24 in1024.0 mb 0.00 in0.0 mm 0.00 in0.0 mm 0.00 in0.0 mm
12:10 AM 48.3°F9.1°C 30.5°F-0.8°C 50% 5.0 mph ENE8.0 kmh ENE 12.0 mph19.3 kmh 30.25 in1024.4 mb 0.00 in0.0 mm 0.00 in0.0 mm 0.00 in0.0 mm
12:12 AM 48.3°F9.1°C 30.5°F-0.8°C 50% 3.0 mph NE4.8 kmh NE 12.0 mph19.3 kmh 30.25 in1024.4 mb 0.00 in0.0 mm 0.00 in0.0 mm 0.00 in0.0 mm
12:14 AM 48.3°F9.1°C 30.5°F-0.8°C 50% 2.0 mph NE3.2 kmh NE 12.0 mph19.3 kmh 30.25 in1024.4 mb 0.00 in0.0 mm 0.00 in0.0 mm 0.00 in0.0 mm
12:16 AM 48.3°F9.1°C 30.5°F-0.8°C 50% 6.0 mph NE9.7 kmh NE 12.0 mph19.3 kmh 30.24 in1024.0 mb 0.00 in0.0 mm 0.00 in0.0 mm 0.00 in0.0 mm
12:18 AM 48.3°F9.1°C 30.5°F-0.8°C 50% 3.0 mph ENE4.8 kmh ENE 12.0 mph19.3 kmh 30.24 in1024.0 mb 0.00 in0.0 mm 0.00 in0.0 mm 0.00 in0.0 mm
12:20 AM 48.4°F9.1°C 30.6°F-0.8°C 50% 3.0 mph NE4.8 kmh NE 12.0 mph19.3 kmh 30.24 in1024.0 mb 0.00 in0.0 mm 0.00 in0.0 mm 0.00 in0.0 mm
12:22 AM 48.4°F9.1°C 30.6°F-0.8°C 50% 3.0 mph NE4.8 kmh NE 12.0 mph19.3 kmh 30.24 in1024.0 mb 0.00 in0.0 mm 0.00 in0.0 mm 0.00 in0.0 mm
12:24 AM 48.4°F9.1°C 30.6°F-0.8°C 50% 3.0 mph NNE4.8 kmh NNE 12.0 mph19.3 kmh 30.25 in1024.4 mb 0.00 in0.0 mm 0.00 in0.0 mm 0.00 in0.0 mm
12:26 AM 48.4°F9.1°C 30.6°F-0.8°C 50% 4.0 mph NE6.4 kmh NE 12.0 mph19.3 kmh 30.25 in1024.4 mb 0.00 in0.0 mm 0.00 in0.0 mm 0.00 in0.0 mm
12:28 AM 48.4°F9.1°C 30.6°F-0.8°C 50% 7.0 mph NNE11.3 kmh NNE 12.0 mph19.3 kmh 30.25 in1024.4 mb 0.00 in0.0 mm 0.00 in0.0 mm 0.00 in0.0 mm
12:30 AM 48.4°F9.1°C 30.6°F-0.8°C 50% 1.0 mph NE1.6 kmh NE 12.0 mph19.3 kmh 30.25 in1024.4 mb 0.00 in0.0 mm 0.00 in0.0 mm 0.00 in0.0 mm
12:32 AM 48.4°F9.1°C 30.6°F-0.8°C 50% 3.0 mph NNE4.8 kmh NNE 12.0 mph19.3 kmh 30.25 in1024.4 mb 0.00 in0.0 mm 0.00 in0.0 mm 0.00 in0.0 mm
12:34 AM 48.4°F9.1°C 30.6°F-0.8°C 50% 3.0 mph NNE4.8 kmh NNE 5.0 mph8.0 kmh 30.25 in1024.4 mb 0.00 in0.0 mm 0.00 in0.0 mm 0.00 in0.0 mm
12:36 AM 48.5°F9.2°C 30.7°F-0.7°C 50% 4.0 mph NNE6.4 kmh NNE 7.0 mph11.3 kmh 30.25 in1024.4 mb 0.00 in0.0 mm 0.00 in0.0 mm 0.00 in0.0 mm
12:38 AM 48.5°F9.2°C 30.7°F-0.7°C 50% 4.0 mph N6.4 kmh N 8.0 mph12.9 kmh 30.25 in1024.4 mb 0.00 in0.0 mm 0.00 in0.0 mm 0.00 in0.0 mm
12:40 AM 48.4°F9.1°C 30.6°F-0.8°C 50% 2.0 mph NE3.2 kmh NE 8.0 mph12.9 kmh 30.25 in1024.4 mb 0.00 in0.0 mm 0.00 in0.0 mm 0.00 in0.0 mm
12:42 AM 48.4°F9.1°C 30.6°F-0.8°C 50% 5.0 mph NNE8.0 kmh NNE 9.0 mph14.5 kmh 30.26 in1024.7 mb 0.00 in0.0 mm 0.00 in0.0 mm 0.00 in0.0 mm
12:44 AM 48.5°F9.2°C 30.7°F-0.7°C 50% 4.0 mph NE6.4 kmh NE 9.0 mph14.5 kmh 30.26 in1024.7 mb 0.00 in0.0 mm 0.00 in0.0 mm 0.00 in0.0 mm
12:46 AM 48.5°F9.2°C 30.7°F-0.7°C 50% 5.0 mph ENE8.0 kmh ENE 9.0 mph14.5 kmh 30.25 in1024.4 mb 0.00 in0.0 mm 0.00 in0.0 mm 0.00 in0.0 mm
12:48 AM 48.4°F9.1°C 30.6°F-0.8°C 50% 4.0 mph NE6.4 kmh NE 9.0 mph14.5 kmh 30.25 in1024.4 mb 0.00 in0.0 mm 0.00 in0.0 mm 0.00 in0.0 mm
12:50 AM 48.5°F9.2°C 30.7°F-0.7°C 50% 3.0 mph N4.8 kmh N 9.0 mph14.5 kmh 30.24 in1024.0 mb 0.00 in0.0 mm 0.00 in0.0 mm 0.00 in0.0 mm
12:52 AM 48.4°F9.1°C 30.6°F-0.8°C 50% 4.0 mph NE6.4 kmh NE 9.0 mph14.5 kmh 30.24 in1024.0 mb 0.00 in0.0 mm 0.00 in0.0 mm 0.00 in0.0 mm
12:54 AM 48.5°F9.2°C 30.7°F-0.7°C 50% 3.0 mph N4.8 kmh N 9.0 mph14.5 kmh 30.24 in1024.0 mb 0.00 in0.0 mm 0.00 in0.0 mm 0.00 in0.0 mm
12:56 AM 48.4°F9.1°C 30.6°F-0.8°C 50% 3.0 mph NE4.8 kmh NE 9.0 mph14.5 kmh 30.24 in1024.0 mb 0.00 in0.0 mm 0.00 in0.0 mm 0.00 in0.0 mm
12:58 AM 48.5°F9.2°C 30.7°F-0.7°C 50% 6.0 mph NE9.7 kmh NE 9.0 mph14.5 kmh 30.24 in1024.0 mb 0.00 in0.0 mm 0.00 in0.0 mm 0.00 in0.0 mm
01:00 AM 48.4°F9.1°C 30.6°F-0.8°C 50% 6.0 mph NE9.7 kmh NE 9.0 mph14.5 kmh 30.24 in1024.0 mb 0.00 in0.0 mm 0.00 in0.0 mm 0.00 in0.0 mm
01:02 AM 48.4°F9.1°C 30.6°F-0.8°C 50% 3.0 mph NE4.8 kmh NE 9.0 mph14.5 kmh 30.23 in1023.7 mb 0.00 in0.0 mm 0.00 in0.0 mm 0.00 in0.0 mm
01:03 AM 48.4°F9.1°C 30.6°F-0.8°C 50% 5.0 mph NE8.0 kmh NE 5.0 mph8.0 kmh 30.23 in1023.7 mb 0.00 in0.0 mm 0.00 in0.0 mm 0.00 in0.0 mm
01:06 AM 48.4°F9.1°C 30.6°F-0.8°C 50% 4.0 mph NE6.4 kmh NE 8.0 mph12.9 kmh 30.23 in1023.7 mb 0.00 in0.0 mm 0.00 in0.0 mm 0.00 in0.0 mm
01:08 AM 48.4°F9.1°C 30.6°F-0.8°C 50% 3.0 mph NE4.8 kmh NE 8.0 mph12.9 kmh 30.23 in1023.7 mb 0.00 in0.0 mm 0.00 in0.0 mm 0.00 in0.0 mm
01:10 AM 48.4°F9.1°C 30.6°F-0.8°C 50% 7.0 mph E11.3 kmh E 8.0 mph12.9 kmh 30.23 in1023.7 mb 0.00 in0.0 mm 0.00 in0.0 mm 0.00 in0.0 mm
01:12 AM 48.4°F9.1°C 30.6°F-0.8°C 50% 5.0 mph ENE8.0 kmh ENE 9.0 mph14.5 kmh 30.23 in1023.7 mb 0.00 in0.0 mm 0.00 in0.0 mm 0.00 in0.0 mm
01:14 AM 48.4°F9.1°C 30.6°F-0.8°C 50% 5.0 mph NE8.0 kmh NE 11.0 mph17.7 kmh 30.23 in1023.7 mb 0.00 in0.0 mm 0.00 in0.0 mm 0.00 in0.0 mm
01:16 AM 48.4°F9.1°C 30.6°F-0.8°C 50% 7.0 mph NE11.3 kmh NE 11.0 mph17.7 kmh 30.23 in1023.7 mb 0.00 in0.0 mm 0.00 in0.0 mm 0.00 in0.0 mm
01:18 AM 48.4°F9.1°C 30.6°F-0.8°C 50% 4.0 mph NE6.4 kmh NE 11.0 mph17.7 kmh 30.23 in1023.7 mb 0.00 in0.0 mm 0.00 in0.0 mm 0.00 in0.0 mm
01:20 AM 48.4°F9.1°C 30.6°F-0.8°C 50% 11.0 mph ENE17.7 kmh ENE 11.0 mph17.7 kmh 30.23 in1023.7 mb 0.00 in0.0 mm 0.00 in0.0 mm 0.00 in0.0 mm
01:22 AM 48.4°F9.1°C 30.6°F-0.8°C 50% 4.0 mph ENE6.4 kmh ENE 11.0 mph17.7 kmh 30.23 in1023.7 mb 0.00 in0.0 mm 0.00 in0.0 mm 0.00 in0.0 mm
01:24 AM 48.4°F9.1°C 30.6°F-0.8°C 50% 7.0 mph NE11.3 kmh NE 11.0 mph17.7 kmh 30.24 in1024.0 mb 0.00 in0.0 mm 0.00 in0.0 mm 0.00 in0.0 mm
01:26 AM 48.5°F9.2°C 30.7°F-0.7°C 50% 5.0 mph ENE8.0 kmh ENE 11.0 mph17.7 kmh 30.23 in1023.7 mb 0.00 in0.0 mm 0.00 in0.0 mm 0.00 in0.0 mm
01:28 AM 48.5°F9.2°C 30.7°F-0.7°C 50% 4.0 mph NE6.4 kmh NE 11.0 mph17.7 kmh 30.23 in1023.7 mb 0.00 in0.0 mm 0.00 in0.0 mm 0.00 in0.0 mm
01:30 AM 48.5°F9.2°C 30.7°F-0.7°C 50% 1.0 mph NE1.6 kmh NE 11.0 mph17.7 kmh 30.23 in1023.7 mb 0.00 in0.0 mm 0.00 in0.0 mm 0.00 in0.0 mm
01:32 AM 48.4°F9.1°C 30.6°F-0.8°C 50% 8.0 mph N12.9 kmh N 11.0 mph17.7 kmh 30.23 in1023.7 mb 0.00 in0.0 mm 0.00 in0.0 mm 0.00 in0.0 mm
01:34 AM 48.4°F9.1°C 30.6°F-0.8°C 50% 3.0 mph NNE4.8 kmh NNE 7.0 mph11.3 kmh 30.23 in1023.7 mb 0.00 in0.0 mm 0.00 in0.0 mm 0.00 in0.0 mm
01:36 AM 48.5°F9.2°C 30.7°F-0.7°C 50% 9.0 mph ENE14.5 kmh ENE 13.0 mph20.9 kmh 30.23 in1023.7 mb 0.00 in0.0 mm 0.00 in0.0 mm 0.00 in0.0 mm
01:38 AM 48.5°F9.2°C 30.7°F-0.7°C 50% 1.0 mph NE1.6 kmh NE 13.0 mph20.9 kmh 30.23 in1023.7 mb 0.00 in0.0 mm 0.00 in0.0 mm 0.00 in0.0 mm
01:40 AM 48.4°F9.1°C 30.6°F-0.8°C 50% 3.0 mph NE4.8 kmh NE 13.0 mph20.9 kmh 30.23 in1023.7 mb 0.00 in0.0 mm 0.00 in0.0 mm 0.00 in0.0 mm
01:42 AM 48.5°F9.2°C 30.7°F-0.7°C 50% 3.0 mph ENE4.8 kmh ENE 13.0 mph20.9 kmh 30.24 in1024.0 mb 0.00 in0.0 mm 0.00 in0.0 mm 0.00 in0.0 mm
01:44 AM 48.4°F9.1°C 30.6°F-0.8°C 50% 2.0 mph NE3.2 kmh NE 13.0 mph20.9 kmh 30.24 in1024.0 mb 0.00 in0.0 mm 0.00 in0.0 mm 0.00 in0.0 mm
01:46 AM 48.4°F9.1°C 30.6°F-0.8°C 50% 7.0 mph NE11.3 kmh NE 13.0 mph20.9 kmh 30.24 in1024.0 mb 0.00 in0.0 mm 0.00 in0.0 mm 0.00 in0.0 mm
01:48 AM 48.4°F9.1°C 30.6°F-0.8°C 50% 5.0 mph ENE8.0 kmh ENE 13.0 mph20.9 kmh 30.23 in1023.7 mb 0.00 in0.0 mm 0.00 in0.0 mm 0.00 in0.0 mm
01:50 AM 48.5°F9.2°C 30.7°F-0.7°C 50% 8.0 mph ENE12.9 kmh ENE 13.0 mph20.9 kmh 30.23 in1023.7 mb 0.00 in0.0 mm 0.00 in0.0 mm 0.00 in0.0 mm
01:52 AM 48.4°F9.1°C 30.6°F-0.8°C 50% 2.0 mph ENE3.2 kmh ENE 13.0 mph20.9 kmh 30.24 in1024.0 mb 0.00 in0.0 mm 0.00 in0.0 mm 0.00 in0.0 mm
01:54 AM 48.4°F9.1°C 30.6°F-0.8°C 50% 4.0 mph NE6.4 kmh NE 13.0 mph20.9 kmh 30.23 in1023.7 mb 0.00 in0.0 mm 0.00 in0.0 mm 0.00 in0.0 mm
01:56 AM 48.4°F9.1°C 30.6°F-0.8°C 50% 8.0 mph E12.9 kmh E 13.0 mph20.9 kmh 30.23 in1023.7 mb 0.00 in0.0 mm 0.00 in0.0 mm 0.00 in0.0 mm
01:58 AM 48.5°F9.2°C 30.7°F-0.7°C 50% 4.0 mph NE6.4 kmh NE 13.0 mph20.9 kmh 30.23 in1023.7 mb 0.00 in0.0 mm 0.00 in0.0 mm 0.00 in0.0 mm
02:00 AM 48.5°F9.2°C 30.7°F-0.7°C 50% 6.0 mph NE9.7 kmh NE 13.0 mph20.9 kmh 30.23 in1023.7 mb 0.00 in0.0 mm 0.00 in0.0 mm 0.00 in0.0 mm
02:02 AM 48.5°F9.2°C 30.2°F-1.0°C 49% 7.0 mph NE11.3 kmh NE 13.0 mph20.9 kmh 30.23 in1023.7 mb 0.00 in0.0 mm 0.00 in0.0 mm 0.00 in0.0 mm
02:04 AM 48.5°F9.2°C 30.2°F-1.0°C 49% 3.0 mph NE4.8 kmh NE 10.0 mph16.1 kmh 30.23 in1023.7 mb 0.00 in0.0 mm 0.00 in0.0 mm 0.00 in0.0 mm
02:06 AM 48.4°F9.1°C 30.6°F-0.8°C 50% 2.0 mph NE3.2 kmh NE 10.0 mph16.1 kmh 30.23 in1023.7 mb 0.00 in0.0 mm 0.00 in0.0 mm 0.00 in0.0 mm
02:08 AM 48.5°F9.2°C 30.2°F-1.0°C 49% 3.0 mph NE4.8 kmh NE 10.0 mph16.1 kmh 30.23 in1023.7 mb 0.00 in0.0 mm 0.00 in0.0 mm 0.00 in0.0 mm
02:10 AM 48.5°F9.2°C 30.2°F-1.0°C 49% 10.0 mph NNE16.1 kmh NNE 10.0 mph16.1 kmh 30.23 in1023.7 mb 0.00 in0.0 mm 0.00 in0.0 mm 0.00 in0.0 mm
02:12 AM 48.5°F9.2°C 30.2°F-1.0°C 49% 6.0 mph NE9.7 kmh NE 11.0 mph17.7 kmh 30.23 in1023.7 mb 0.00 in0.0 mm 0.00 in0.0 mm 0.00 in0.0 mm
02:14 AM 48.4°F9.1°C 30.1°F-1.1°C 49% 4.0 mph NE6.4 kmh NE 11.0 mph17.7 kmh 30.23 in1023.7 mb 0.00 in0.0 mm 0.00 in0.0 mm 0.00 in0.0 mm
02:16 AM 48.4°F9.1°C 30.1°F-1.1°C 49% 8.0 mph ENE12.9 kmh ENE 11.0 mph17.7 kmh 30.22 in1023.4 mb 0.00 in0.0 mm 0.00 in0.0 mm 0.00 in0.0 mm
02:18 AM 48.5°F9.2°C 30.2°F-1.0°C 49% 9.0 mph NNE14.5 kmh NNE 11.0 mph17.7 kmh 30.23 in1023.7 mb 0.00 in0.0 mm 0.00 in0.0 mm 0.00 in0.0 mm
02:19 AM 48.4°F9.1°C 30.1°F-1.1°C 49% 4.0 mph NE6.4 kmh NE 11.0 mph17.7 kmh 30.23 in1023.7 mb 0.00 in0.0 mm 0.00 in0.0 mm 0.00 in0.0 mm
02:21 AM 48.4°F9.1°C 30.1°F-1.1°C 49% 8.0 mph E12.9 kmh E 11.0 mph17.7 kmh 30.23 in1023.7 mb 0.00 in0.0 mm 0.00 in0.0 mm 0.00 in0.0 mm
02:24 AM 48.4°F9.1°C 30.1°F-1.1°C 49% 4.0 mph NE6.4 kmh NE 11.0 mph17.7 kmh 30.23 in1023.7 mb 0.00 in0.0 mm 0.00 in0.0 mm 0.00 in0.0 mm
02:25 AM 48.4°F9.1°C 30.6°F-0.8°C 50% 4.0 mph NE6.4 kmh NE 11.0 mph17.7 kmh 30.22 in1023.4 mb 0.00 in0.0 mm 0.00 in0.0 mm 0.00 in0.0 mm
02:28 AM 48.3°F9.1°C 30.5°F-0.8°C 50% 6.0 mph NE9.7 kmh NE 11.0 mph17.7 kmh 30.22 in1023.4 mb 0.00 in0.0 mm 0.00 in0.0 mm 0.00 in0.0 mm
02:29 AM 48.4°F9.1°C 30.6°F-0.8°C 50% 2.0 mph NE3.2 kmh NE 11.0 mph17.7 kmh 30.22 in1023.4 mb 0.00 in0.0 mm 0.00 in0.0 mm 0.00 in0.0 mm
02:31 AM 48.3°F9.1°C 30.5°F-0.8°C 50% 2.0 mph N3.2 kmh N 11.0 mph17.7 kmh 30.22 in1023.4 mb 0.00 in0.0 mm 0.00 in0.0 mm 0.00 in0.0 mm
02:34 AM 48.4°F9.1°C 30.6°F-0.8°C 50% 3.0 mph ENE4.8 kmh ENE 9.0 mph14.5 kmh 30.23 in1023.7 mb 0.00 in0.0 mm 0.00 in0.0 mm 0.00 in0.0 mm
02:35 AM 48.4°F9.1°C 30.6°F-0.8°C 50% 3.0 mph NE4.8 kmh NE 9.0 mph14.5 kmh 30.23 in1023.7 mb 0.00 in0.0 mm 0.00 in0.0 mm 0.00 in0.0 mm
02:37 AM 48.3°F9.1°C 30.5°F-0.8°C 50% 4.0 mph E6.4 kmh E 9.0 mph14.5 kmh 30.23 in1023.7 mb 0.00 in0.0 mm 0.00 in0.0 mm 0.00 in0.0 mm
02:40 AM 48.3°F9.1°C 30.5°F-0.8°C 50% 2.0 mph NE3.2 kmh NE 9.0 mph14.5 kmh 30.23 in1023.7 mb 0.00 in0.0 mm 0.00 in0.0 mm 0.00 in0.0 mm
02:42 AM 48.4°F9.1°C 30.6°F-0.8°C 50% 3.0 mph NE4.8 kmh NE 9.0 mph14.5 kmh 30.23 in1023.7 mb 0.00 in0.0 mm 0.00 in0.0 mm 0.00 in0.0 mm
02:44 AM 48.4°F9.1°C 30.6°F-0.8°C 50% 10.0 mph N16.1 kmh N 10.0 mph16.1 kmh 30.23 in1023.7 mb 0.00 in0.0 mm 0.00 in0.0 mm 0.00 in0.0 mm
02:45 AM 48.4°F9.1°C 30.6°F-0.8°C 50% 11.0 mph NE17.7 kmh NE 11.0 mph17.7 kmh 30.22 in1023.4 mb 0.00 in0.0 mm 0.00 in0.0 mm 0.00 in0.0 mm
02:47 AM 48.3°F9.1°C 30.5°F-0.8°C 50% 4.0 mph NE6.4 kmh NE 11.0 mph17.7 kmh 30.23 in1023.7 mb 0.00 in0.0 mm 0.00 in0.0 mm 0.00 in0.0 mm
02:49 AM 48.3°F9.1°C 30.5°F-0.8°C 50% 6.0 mph ENE9.7 kmh ENE 11.0 mph17.7 kmh 30.22 in1023.4 mb 0.00 in0.0 mm 0.00 in0.0 mm 0.00 in0.0 mm
02:52 AM 48.3°F9.1°C 30.5°F-0.8°C 50% 5.0 mph NE8.0 kmh NE 11.0 mph17.7 kmh 30.22 in1023.4 mb 0.00 in0.0 mm 0.00 in0.0 mm 0.00 in0.0 mm
02:55 AM 48.3°F9.1°C 30.5°F-0.8°C 50% 5.0 mph N8.0 kmh N 11.0 mph17.7 kmh 30.22 in1023.4 mb 0.00 in0.0 mm 0.00 in0.0 mm 0.00 in0.0 mm
02:57 AM 48.3°F9.1°C 30.5°F-0.8°C 50% 4.0 mph NNE6.4 kmh NNE 11.0 mph17.7 kmh 30.22 in1023.4 mb 0.00 in0.0 mm 0.00 in0.0 mm 0.00 in0.0 mm
03:00 AM 48.3°F9.1°C 31.0°F-0.6°C 51% 3.0 mph NE4.8 kmh NE 11.0 mph17.7 kmh 30.23 in1023.7 mb 0.00 in0.0 mm 0.00 in0.0 mm 0.00 in0.0 mm
03:01 AM 48.3°F9.1°C 30.5°F-0.8°C 50% 5.0 mph E8.0 kmh E 11.0 mph17.7 kmh 30.23 in1023.7 mb 0.00 in0.0 mm 0.00 in0.0 mm 0.00 in0.0 mm
03:03 AM 48.2°F9.0°C 30.5°F-0.8°C 50% 4.0 mph N6.4 kmh N 11.0 mph17.7 kmh 30.23 in1023.7 mb 0.00 in0.0 mm 0.00 in0.0 mm 0.00 in0.0 mm
03:05 AM 48.3°F9.1°C 30.5°F-0.8°C 50% 3.0 mph N4.8 kmh N 11.0 mph17.7 kmh 30.23 in1023.7 mb 0.00 in0.0 mm 0.00 in0.0 mm 0.00 in0.0 mm
03:08 AM 48.2°F9.0°C 30.5°F-0.8°C 50% 5.0 mph NE8.0 kmh NE 11.0 mph17.7 kmh 30.23 in1023.7 mb 0.00 in0.0 mm 0.00 in0.0 mm 0.00 in0.0 mm
03:10 AM 48.2°F9.0°C 30.5°F-0.8°C 50% 4.0 mph NNE6.4 kmh NNE 11.0 mph17.7 kmh 30.23 in1023.7 mb 0.00 in0.0 mm 0.00 in0.0 mm 0.00 in0.0 mm
03:12 AM 48.2°F9.0°C 30.5°F-0.8°C 50% 6.0 mph NE9.7 kmh NE 11.0 mph17.7 kmh 30.22 in1023.4 mb 0.00 in0.0 mm 0.00 in0.0 mm 0.00 in0.0 mm
03:13 AM 48.2°F9.0°C 30.5°F-0.8°C 50% 3.0 mph NE4.8 kmh NE 11.0 mph17.7 kmh 30.22 in1023.4 mb 0.00 in0.0 mm 0.00 in0.0 mm 0.00 in0.0 mm
03:16 AM 48.2°F9.0°C 30.9°F-0.6°C 51% 2.0 mph N3.2 kmh N 11.0 mph17.7 kmh 30.22 in1023.4 mb 0.00 in0.0 mm 0.00 in0.0 mm 0.00 in0.0 mm
03:18 AM 48.2°F9.0°C 30.9°F-0.6°C 51% 4.0 mph NE6.4 kmh NE 11.0 mph17.7 kmh 30.22 in1023.4 mb 0.00 in0.0 mm 0.00 in0.0 mm 0.00 in0.0 mm
03:20 AM 48.2°F9.0°C 30.9°F-0.6°C 51% 2.0 mph NNE3.2 kmh NNE 11.0 mph17.7 kmh 30.22 in1023.4 mb 0.00 in0.0 mm 0.00 in0.0 mm 0.00 in0.0 mm
03:22 AM 48.2°F9.0°C 30.9°F-0.6°C 51% 3.0 mph ENE4.8 kmh ENE 11.0 mph17.7 kmh 30.22 in1023.4 mb 0.00 in0.0 mm 0.00 in0.0 mm 0.00 in0.0 mm
03:24 AM 48.2°F9.0°C 30.9°F-0.6°C 51% 3.0 mph NE4.8 kmh NE 11.0 mph17.7 kmh 30.22 in1023.4 mb 0.00 in0.0 mm 0.00 in0.0 mm 0.00 in0.0 mm
03:26 AM 48.2°F9.0°C 30.9°F-0.6°C 51% 4.0 mph NE6.4 kmh NE 11.0 mph17.7 kmh 30.22 in1023.4 mb 0.00 in0.0 mm 0.00 in0.0 mm 0.00 in0.0 mm
03:28 AM 48.1°F8.9°C 30.8°F-0.7°C 51% 3.0 mph NE4.8 kmh NE 11.0 mph17.7 kmh 30.22 in1023.4 mb 0.00 in0.0 mm 0.00 in0.0 mm 0.00 in0.0 mm
03:30 AM 48.2°F9.0°C 30.9°F-0.6°C 51% 6.0 mph ENE9.7 kmh ENE 11.0 mph17.7 kmh 30.22 in1023.4 mb 0.00 in0.0 mm 0.00 in0.0 mm 0.00 in0.0 mm
03:32 AM 48.1°F8.9°C 30.8°F-0.7°C 51% 4.0 mph NE6.4 kmh NE 11.0 mph17.7 kmh 30.22 in1023.4 mb 0.00 in0.0 mm 0.00 in0.0 mm 0.00 in0.0 mm
03:34 AM 48.2°F9.0°C 30.9°F-0.6°C 51% 7.0 mph E11.3 kmh E 9.0 mph14.5 kmh 30.22 in1023.4 mb 0.00 in0.0 mm 0.00 in0.0 mm 0.00 in0.0 mm
03:36 AM 48.1°F8.9°C 30.8°F-0.7°C 51% 5.0 mph NE8.0 kmh NE 11.0 mph17.7 kmh 30.22 in1023.4 mb 0.00 in0.0 mm 0.00 in0.0 mm 0.00 in0.0 mm
03:38 AM 48.1°F8.9°C 30.4°F-0.9°C 50% 3.0 mph NNE4.8 kmh NNE 11.0 mph17.7 kmh 30.22 in1023.4 mb 0.00 in0.0 mm 0.00 in0.0 mm 0.00 in0.0 mm
03:40 AM 48.1°F8.9°C 30.4°F-0.9°C 50% 8.0 mph NNE12.9 kmh NNE 11.0 mph17.7 kmh 30.22 in1023.4 mb 0.00 in0.0 mm 0.00 in0.0 mm 0.00 in0.0 mm
03:42 AM 48.1°F8.9°C 30.8°F-0.7°C 51% 5.0 mph NE8.0 kmh NE 11.0 mph17.7 kmh 30.21 in1023.0 mb 0.00 in0.0 mm 0.00 in0.0 mm 0.00 in0.0 mm
03:44 AM 48.1°F8.9°C 30.4°F-0.9°C 50% 5.0 mph NE8.0 kmh NE 11.0 mph17.7 kmh 30.21 in1023.0 mb 0.00 in0.0 mm 0.00 in0.0 mm 0.00 in0.0 mm
03:46 AM 48.1°F8.9°C 30.8°F-0.7°C 51% 10.0 mph NE16.1 kmh NE 11.0 mph17.7 kmh 30.20 in1022.7 mb 0.00 in0.0 mm 0.00 in0.0 mm 0.00 in0.0 mm
03:48 AM 48.1°F8.9°C 30.8°F-0.7°C 51% 8.0 mph NNE12.9 kmh NNE 13.0 mph20.9 kmh 30.20 in1022.7 mb 0.00 in0.0 mm 0.00 in0.0 mm 0.00 in0.0 mm
03:50 AM 48.1°F8.9°C 30.8°F-0.7°C 51% 8.0 mph ENE12.9 kmh ENE 13.0 mph20.9 kmh 30.19 in1022.4 mb 0.00 in0.0 mm 0.00 in0.0 mm 0.00 in0.0 mm
03:52 AM 48.0°F8.9°C 30.8°F-0.7°C 51% 4.0 mph ENE6.4 kmh ENE 13.0 mph20.9 kmh 30.19 in1022.4 mb 0.00 in0.0 mm 0.00 in0.0 mm 0.00 in0.0 mm
03:54 AM 48.0°F8.9°C 30.8°F-0.7°C 51% 6.0 mph NE9.7 kmh NE 13.0 mph20.9 kmh 30.19 in1022.4 mb 0.00 in0.0 mm 0.00 in0.0 mm 0.00 in0.0 mm
03:56 AM 48.0°F8.9°C 30.8°F-0.7°C 51% 11.0 mph NE17.7 kmh NE 14.0 mph22.5 kmh 30.19 in1022.4 mb 0.00 in0.0 mm 0.00 in0.0 mm 0.00 in0.0 mm
03:58 AM 48.0°F8.9°C 30.8°F-0.7°C 51% 6.0 mph NNE9.7 kmh NNE 14.0 mph22.5 kmh 30.19 in1022.4 mb 0.00 in0.0 mm 0.00 in0.0 mm 0.00 in0.0 mm
04:00 AM 48.0°F8.9°C 30.8°F-0.7°C 51% 5.0 mph ENE8.0 kmh ENE 14.0 mph22.5 kmh 30.18 in1022.0 mb 0.00 in0.0 mm 0.00 in0.0 mm 0.00 in0.0 mm
04:02 AM 48.0°F8.9°C 31.2°F-0.4°C 52% 8.0 mph ENE12.9 kmh ENE 14.0 mph22.5 kmh 30.18 in1022.0 mb 0.00 in0.0 mm 0.00 in0.0 mm 0.00 in0.0 mm
04:04 AM 48.0°F8.9°C 30.8°F-0.7°C 51% 4.0 mph NE6.4 kmh NE 5.0 mph8.0 kmh 30.19 in1022.4 mb 0.00 in0.0 mm 0.00 in0.0 mm 0.00 in0.0 mm
04:06 AM 48.0°F8.9°C 31.2°F-0.4°C 52% 3.0 mph NNE4.8 kmh NNE 5.0 mph8.0 kmh 30.19 in1022.4 mb 0.00 in0.0 mm 0.00 in0.0 mm 0.00 in0.0 mm
04:08 AM 48.0°F8.9°C 31.2°F-0.4°C 52% 9.0 mph NE14.5 kmh NE 9.0 mph14.5 kmh 30.19 in1022.4 mb 0.00 in0.0 mm 0.00 in0.0 mm 0.00 in0.0 mm
04:10 AM 48.0°F8.9°C 30.8°F-0.7°C 51% 8.0 mph NNE12.9 kmh NNE 12.0 mph19.3 kmh 30.18 in1022.0 mb 0.00 in0.0 mm 0.00 in0.0 mm 0.00 in0.0 mm
04:12 AM 48.0°F8.9°C 31.2°F-0.4°C 52% 6.0 mph NE9.7 kmh NE 12.0 mph19.3 kmh 30.18 in1022.0 mb 0.00 in0.0 mm 0.00 in0.0 mm 0.00 in0.0 mm
04:14 AM 48.0°F8.9°C 31.2°F-0.4°C 52% 4.0 mph NE6.4 kmh NE 12.0 mph19.3 kmh 30.18 in1022.0 mb 0.00 in0.0 mm 0.00 in0.0 mm 0.00 in0.0 mm
04:16 AM 48.0°F8.9°C 31.2°F-0.4°C 52% 5.0 mph NE8.0 kmh NE 12.0 mph19.3 kmh 30.18 in1022.0 mb 0.00 in0.0 mm 0.00 in0.0 mm 0.00 in0.0 mm
04:18 AM 47.9°F8.8°C 31.1°F-0.5°C 52% 3.0 mph ENE4.8 kmh ENE 12.0 mph19.3 kmh 30.19 in1022.4 mb 0.00 in0.0 mm 0.00 in0.0 mm 0.00 in0.0 mm
04:20 AM 48.0°F8.9°C 31.2°F-0.4°C 52% 1.0 mph NE1.6 kmh NE 12.0 mph19.3 kmh 30.19 in1022.4 mb 0.00 in0.0 mm 0.00 in0.0 mm 0.00 in0.0 mm
04:22 AM 48.0°F8.9°C 31.2°F-0.4°C 52% 5.0 mph NE8.0 kmh NE 12.0 mph19.3 kmh 30.19 in1022.4 mb 0.00 in0.0 mm 0.00 in0.0 mm 0.00 in0.0 mm
04:24 AM 47.9°F8.8°C 31.1°F-0.5°C 52% 7.0 mph NE11.3 kmh NE 12.0 mph19.3 kmh 30.19 in1022.4 mb 0.00 in0.0 mm 0.00 in0.0 mm 0.00 in0.0 mm
04:26 AM 48.0°F8.9°C 31.2°F-0.4°C 52% 4.0 mph NE6.4 kmh NE 12.0 mph19.3 kmh 30.18 in1022.0 mb 0.00 in0.0 mm 0.00 in0.0 mm 0.00 in0.0 mm
04:28 AM 47.9°F8.8°C 31.1°F-0.5°C 52% 8.0 mph E12.9 kmh E 13.0 mph20.9 kmh 30.19 in1022.4 mb 0.00 in0.0 mm 0.00 in0.0 mm 0.00 in0.0 mm
04:29 AM 47.9°F8.8°C 31.1°F-0.5°C 52% 5.0 mph NE8.0 kmh NE 13.0 mph20.9 kmh 30.19 in1022.4 mb 0.00 in0.0 mm 0.00 in0.0 mm 0.00 in0.0 mm
04:32 AM 47.8°F8.8°C 31.5°F-0.3°C 53% 7.0 mph E11.3 kmh E 13.0 mph20.9 kmh 30.19 in1022.4 mb 0.00 in0.0 mm 0.00 in0.0 mm 0.00 in0.0 mm
04:34 AM 47.9°F8.8°C 31.6°F-0.2°C 53% 4.0 mph E6.4 kmh E 6.0 mph9.7 kmh 30.20 in1022.7 mb 0.00 in0.0 mm 0.00 in0.0 mm 0.00 in0.0 mm
04:36 AM 47.9°F8.8°C 31.6°F-0.2°C 53% 4.0 mph E6.4 kmh E 6.0 mph9.7 kmh 30.20 in1022.7 mb 0.00 in0.0 mm 0.00 in0.0 mm 0.00 in0.0 mm
04:38 AM 47.9°F8.8°C 31.6°F-0.2°C 53% 3.0 mph ENE4.8 kmh ENE 8.0 mph12.9 kmh 30.20 in1022.7 mb 0.00 in0.0 mm 0.00 in0.0 mm 0.00 in0.0 mm
04:40 AM 47.9°F8.8°C 31.6°F-0.2°C 53% 3.0 mph E4.8 kmh E 9.0 mph14.5 kmh 30.20 in1022.7 mb 0.00 in0.0 mm 0.00 in0.0 mm 0.00 in0.0 mm
04:42 AM 47.9°F8.8°C 31.6°F-0.2°C 53% Calm Calm 9.0 mph14.5 kmh 30.21 in1023.0 mb 0.00 in0.0 mm 0.00 in0.0 mm 0.00 in0.0 mm
04:44 AM 47.9°F8.8°C 31.6°F-0.2°C 53% 5.0 mph ENE8.0 kmh ENE 9.0 mph14.5 kmh 30.21 in1023.0 mb 0.00 in0.0 mm 0.00 in0.0 mm 0.00 in0.0 mm
04:46 AM 47.9°F8.8°C 31.6°F-0.2°C 53% 4.0 mph N6.4 kmh N 9.0 mph14.5 kmh 30.21 in1023.0 mb 0.00 in0.0 mm 0.00 in0.0 mm 0.00 in0.0 mm
04:48 AM 47.9°F8.8°C 31.6°F-0.2°C 53% 4.0 mph NNW6.4 kmh NNW 9.0 mph14.5 kmh 30.22 in1023.4 mb 0.00 in0.0 mm 0.00 in0.0 mm 0.00 in0.0 mm
04:50 AM 47.8°F8.8°C 31.5°F-0.3°C 53% 5.0 mph NNW8.0 kmh NNW 9.0 mph14.5 kmh 30.22 in1023.4 mb 0.00 in0.0 mm 0.00 in0.0 mm 0.00 in0.0 mm
04:52 AM 47.9°F8.8°C 31.6°F-0.2°C 53% 6.0 mph N9.7 kmh N 10.0 mph16.1 kmh 30.21 in1023.0 mb 0.00 in0.0 mm 0.00 in0.0 mm 0.00 in0.0 mm
04:54 AM 47.9°F8.8°C 32.5°F0.3°C 55% 2.0 mph NNE3.2 kmh NNE 10.0 mph16.1 kmh 30.21 in1023.0 mb 0.00 in0.0 mm 0.00 in0.0 mm 0.00 in0.0 mm
04:56 AM 47.8°F8.8°C 32.4°F0.2°C 55% 7.0 mph NE11.3 kmh NE 10.0 mph16.1 kmh 30.21 in1023.0 mb 0.00 in0.0 mm 0.00 in0.0 mm 0.00 in0.0 mm
04:58 AM 47.7°F8.7°C 32.3°F0.2°C 55% 4.0 mph NE6.4 kmh NE 10.0 mph16.1 kmh 30.21 in1023.0 mb 0.00 in0.0 mm 0.00 in0.0 mm 0.00 in0.0 mm
05:00 AM 47.7°F8.7°C 33.2°F0.7°C 57% 2.0 mph NE3.2 kmh NE 10.0 mph16.1 kmh 30.21 in1023.0 mb 0.00 in0.0 mm 0.00 in0.0 mm 0.00 in0.0 mm
05:02 AM 47.5°F8.6°C 33.5°F0.8°C 58% 1.0 mph NE1.6 kmh NE 10.0 mph16.1 kmh 30.22 in1023.4 mb 0.01 in0.3 mm 0.30 in7.6 mm 0.01 in0.3 mm
05:04 AM 47.5°F8.6°C 33.5°F0.8°C 58% 3.0 mph NE4.8 kmh NE 6.0 mph9.7 kmh 30.21 in1023.0 mb 0.01 in0.3 mm 0.00 in0.0 mm 0.01 in0.3 mm
05:06 AM 47.2°F8.4°C 34.5°F1.4°C 61% 2.0 mph NNE3.2 kmh NNE 6.0 mph9.7 kmh 30.21 in1023.0 mb 0.01 in0.3 mm 0.00 in0.0 mm 0.01 in0.3 mm
05:08 AM 47.0°F8.3°C 34.7°F1.5°C 62% 4.0 mph NE6.4 kmh NE 6.0 mph9.7 kmh 30.21 in1023.0 mb 0.02 in0.5 mm 0.30 in7.6 mm 0.02 in0.5 mm
05:10 AM 46.7°F8.2°C 35.2°F1.8°C 64% 3.0 mph NE4.8 kmh NE 6.0 mph9.7 kmh 30.20 in1022.7 mb 0.04 in1.0 mm 0.60 in15.2 mm 0.04 in1.0 mm
05:12 AM 46.4°F8.0°C 35.7°F2.1°C 66% 4.0 mph NE6.4 kmh NE 6.0 mph9.7 kmh 30.19 in1022.4 mb 0.04 in1.0 mm 0.00 in0.0 mm 0.04 in1.0 mm
05:14 AM 46.0°F7.8°C 35.7°F2.1°C 67% 1.0 mph NE1.6 kmh NE 6.0 mph9.7 kmh 30.20 in1022.7 mb 0.04 in1.0 mm 0.00 in0.0 mm 0.04 in1.0 mm
05:16 AM 45.7°F7.6°C 35.8°F2.1°C 68% 5.0 mph ENE8.0 kmh ENE 6.0 mph9.7 kmh 30.20 in1022.7 mb 0.04 in1.0 mm 0.00 in0.0 mm 0.04 in1.0 mm
05:18 AM 45.4°F7.4°C 36.2°F2.3°C 70% 4.0 mph NE6.4 kmh NE 6.0 mph9.7 kmh 30.20 in1022.7 mb 0.05 in1.3 mm 0.30 in7.6 mm 0.05 in1.3 mm
05:20 AM 45.2°F7.3°C 36.0°F2.2°C 70% 4.0 mph NE6.4 kmh NE 6.0 mph9.7 kmh 30.20 in1022.7 mb 0.05 in1.3 mm 0.00 in0.0 mm 0.05 in1.3 mm
05:22 AM 45.0°F7.2°C 36.2°F2.3°C 71% 1.0 mph NE1.6 kmh NE 6.0 mph9.7 kmh 30.21 in1023.0 mb 0.05 in1.3 mm 0.00 in0.0 mm 0.05 in1.3 mm
05:24 AM 44.8°F7.1°C 36.0°F2.2°C 71% 3.0 mph ENE4.8 kmh ENE 6.0 mph9.7 kmh 30.22 in1023.4 mb 0.05 in1.3 mm 0.00 in0.0 mm 0.05 in1.3 mm
05:25 AM 44.7°F7.1°C 36.2°F2.3°C 72% 2.0 mph ENE3.2 kmh ENE 6.0 mph9.7 kmh 30.23 in1023.7 mb 0.05 in1.3 mm 0.00 in0.0 mm 0.05 in1.3 mm
05:28 AM 44.6°F7.0°C 36.2°F2.3°C 72% 1.0 mph ENE1.6 kmh ENE 6.0 mph9.7 kmh 30.23 in1023.7 mb 0.05 in1.3 mm 0.00 in0.0 mm 0.05 in1.3 mm
05:30 AM 44.5°F6.9°C 36.1°F2.3°C 72% 3.0 mph NE4.8 kmh NE 6.0 mph9.7 kmh 30.23 in1023.7 mb 0.05 in1.3 mm 0.00 in0.0 mm 0.05 in1.3 mm
05:32 AM 44.5°F6.9°C 36.4°F2.4°C 73% 2.0 mph NE3.2 kmh NE 6.0 mph9.7 kmh 30.22 in1023.4 mb 0.05 in1.3 mm 0.00 in0.0 mm 0.05 in1.3 mm
05:34 AM 44.5°F6.9°C 36.4°F2.4°C 73% 3.0 mph NE4.8 kmh NE 5.0 mph8.0 kmh 30.22 in1023.4 mb 0.05 in1.3 mm 0.00 in0.0 mm 0.05 in1.3 mm
05:36 AM 44.5°F6.9°C 36.4°F2.4°C 73% 4.0 mph NE6.4 kmh NE 5.0 mph8.0 kmh 30.21 in1023.0 mb 0.05 in1.3 mm 0.00 in0.0 mm 0.05 in1.3 mm
05:38 AM 44.4°F6.9°C 36.7°F2.6°C 74% 5.0 mph ENE8.0 kmh ENE 7.0 mph11.3 kmh 30.20 in1022.7 mb 0.05 in1.3 mm 0.00 in0.0 mm 0.05 in1.3 mm
05:40 AM 44.3°F6.8°C 36.9°F2.7°C 75% 4.0 mph ENE6.4 kmh ENE 7.0 mph11.3 kmh 30.20 in1022.7 mb 0.05 in1.3 mm 0.00 in0.0 mm 0.05 in1.3 mm
05:42 AM 44.2°F6.8°C 36.8°F2.7°C 75% 2.0 mph ENE3.2 kmh ENE 7.0 mph11.3 kmh 30.21 in1023.0 mb 0.05 in1.3 mm 0.00 in0.0 mm 0.05 in1.3 mm
05:44 AM 44.2°F6.8°C 36.8°F2.7°C 75% 4.0 mph NE6.4 kmh NE 7.0 mph11.3 kmh 30.21 in1023.0 mb 0.06 in1.5 mm 0.30 in7.6 mm 0.06 in1.5 mm
05:46 AM 44.1°F6.7°C 37.0°F2.8°C 76% 4.0 mph NE6.4 kmh NE 8.0 mph12.9 kmh 30.20 in1022.7 mb 0.07 in1.8 mm 0.30 in7.6 mm 0.07 in1.8 mm
05:48 AM 44.0°F6.7°C 37.3°F2.9°C 77% 4.0 mph ENE6.4 kmh ENE 8.0 mph12.9 kmh 30.21 in1023.0 mb 0.08 in2.0 mm 0.30 in7.6 mm 0.08 in2.0 mm
05:50 AM 43.8°F6.6°C 37.1°F2.8°C 77% 5.0 mph E8.0 kmh E 8.0 mph12.9 kmh 30.22 in1023.4 mb 0.10 in2.5 mm 0.60 in15.2 mm 0.10 in2.5 mm
05:52 AM 43.7°F6.5°C 37.3°F2.9°C 78% 3.0 mph ENE4.8 kmh ENE 8.0 mph12.9 kmh 30.22 in1023.4 mb 0.13 in3.3 mm 0.90 in22.9 mm 0.13 in3.3 mm
05:54 AM 43.5°F6.4°C 37.1°F2.8°C 78% 2.0 mph ENE3.2 kmh ENE 8.0 mph12.9 kmh 30.24 in1024.0 mb 0.15 in3.8 mm 0.60 in15.2 mm 0.15 in3.8 mm
05:56 AM 43.5°F6.4°C 37.4°F3.0°C 79% 3.0 mph W4.8 kmh W 8.0 mph12.9 kmh 30.25 in1024.4 mb 0.15 in3.8 mm 0.00 in0.0 mm 0.15 in3.8 mm
05:58 AM 43.4°F6.3°C 37.7°F3.2°C 80% 4.0 mph WNW6.4 kmh WNW 8.0 mph12.9 kmh 30.24 in1024.0 mb 0.16 in4.1 mm 0.30 in7.6 mm 0.16 in4.1 mm
06:00 AM 43.3°F6.3°C 37.6°F3.1°C 80% 5.0 mph NW8.0 kmh NW 8.0 mph12.9 kmh 30.24 in1024.0 mb 0.17 in4.3 mm 0.01 in0.3 mm 0.17 in4.3 mm
06:02 AM 43.2°F6.2°C 37.5°F3.1°C 80% 3.0 mph WNW4.8 kmh WNW 8.0 mph12.9 kmh 30.24 in1024.0 mb 0.19 in4.8 mm 0.60 in15.2 mm 0.19 in4.8 mm
06:04 AM 43.2°F6.2°C 37.8°F3.2°C 81% 3.0 mph NW4.8 kmh NW 7.0 mph11.3 kmh 30.24 in1024.0 mb 0.21 in5.3 mm 0.60 in15.2 mm 0.21 in5.3 mm
06:06 AM 43.0°F6.1°C 37.6°F3.1°C 81% 4.0 mph NW6.4 kmh NW 9.0 mph14.5 kmh 30.24 in1024.0 mb 0.22 in5.6 mm 0.30 in7.6 mm 0.22 in5.6 mm
06:08 AM 42.8°F6.0°C 37.4°F3.0°C 81% 4.0 mph W6.4 kmh W 9.0 mph14.5 kmh 30.25 in1024.4 mb 0.23 in5.8 mm 0.30 in7.6 mm 0.23 in5.8 mm
06:10 AM 42.6°F5.9°C 37.5°F3.1°C 82% 4.0 mph WNW6.4 kmh WNW 9.0 mph14.5 kmh 30.26 in1024.7 mb 0.23 in5.8 mm 0.00 in0.0 mm 0.23 in5.8 mm
06:12 AM 42.5°F5.8°C 37.4°F3.0°C 82% 3.0 mph NNW4.8 kmh NNW 9.0 mph14.5 kmh 30.26 in1024.7 mb 0.23 in5.8 mm 0.00 in0.0 mm 0.23 in5.8 mm
06:14 AM 42.4°F5.8°C 37.3°F2.9°C 82% 3.0 mph NW4.8 kmh NW 9.0 mph14.5 kmh 30.26 in1024.7 mb 0.23 in5.8 mm 0.00 in0.0 mm 0.23 in5.8 mm
06:16 AM 42.3°F5.7°C 37.5°F3.1°C 83% 4.0 mph NW6.4 kmh NW 9.0 mph14.5 kmh 30.27 in1025.1 mb 0.23 in5.8 mm 0.00 in0.0 mm 0.23 in5.8 mm
06:18 AM 42.3°F5.7°C 37.5°F3.1°C 83% 3.0 mph NW4.8 kmh NW 9.0 mph14.5 kmh 30.27 in1025.1 mb 0.23 in5.8 mm 0.00 in0.0 mm 0.23 in5.8 mm
06:20 AM 42.3°F5.7°C 37.5°F3.1°C 83% 3.0 mph NW4.8 kmh NW 9.0 mph14.5 kmh 30.27 in1025.1 mb 0.24 in6.1 mm 0.30 in7.6 mm 0.24 in6.1 mm
06:22 AM 42.1°F5.6°C 37.3°F2.9°C 83% 4.0 mph NNW6.4 kmh NNW 9.0 mph14.5 kmh 30.27 in1025.1 mb 0.24 in6.1 mm 0.00 in0.0 mm 0.24 in6.1 mm
06:24 AM 42.1°F5.6°C 37.3°F2.9°C 83% 4.0 mph NNW6.4 kmh NNW 9.0 mph14.5 kmh 30.27 in1025.1 mb 0.24 in6.1 mm 0.00 in0.0 mm 0.24 in6.1 mm
06:26 AM 42.1°F5.6°C 37.3°F2.9°C 83% 4.0 mph NNW6.4 kmh NNW 9.0 mph14.5 kmh 30.28 in1025.4 mb 0.24 in6.1 mm 0.00 in0.0 mm 0.24 in6.1 mm
06:28 AM 42.1°F5.6°C 37.6°F3.1°C 84% 4.0 mph NW6.4 kmh NW 9.0 mph14.5 kmh 30.27 in1025.1 mb 0.25 in6.4 mm 0.30 in7.6 mm 0.25 in6.4 mm
06:30 AM 42.0°F5.6°C 37.5°F3.1°C 84% 2.0 mph N3.2 kmh N 9.0 mph14.5 kmh 30.26 in1024.7 mb 0.25 in6.4 mm 0.00 in0.0 mm 0.25 in6.4 mm
06:32 AM 42.0°F5.6°C 37.5°F3.1°C 84% 3.0 mph N4.8 kmh N 9.0 mph14.5 kmh 30.26 in1024.7 mb 0.25 in6.4 mm 0.00 in0.0 mm 0.25 in6.4 mm
06:34 AM 41.9°F5.5°C 37.4°F3.0°C 84% 1.0 mph N1.6 kmh N 5.0 mph8.0 kmh 30.27 in1025.1 mb 0.21 in5.3 mm 0.00 in0.0 mm 0.25 in6.4 mm
06:36 AM 41.9°F5.5°C 37.4°F3.0°C 84% Calm Calm 5.0 mph8.0 kmh 30.27 in1025.1 mb 0.21 in5.3 mm 0.00 in0.0 mm 0.25 in6.4 mm
06:38 AM 41.9°F5.5°C 37.4°F3.0°C 84% 2.0 mph NNE3.2 kmh NNE 5.0 mph8.0 kmh 30.27 in1025.1 mb 0.21 in5.3 mm 0.00 in0.0 mm 0.25 in6.4 mm
06:40 AM 41.9°F5.5°C 37.7°F3.2°C 85% 3.0 mph NNE4.8 kmh NNE 5.0 mph8.0 kmh 30.27 in1025.1 mb 0.22 in5.6 mm 0.30 in7.6 mm 0.26 in6.6 mm
06:42 AM 41.9°F5.5°C 37.7°F3.2°C 85% 2.0 mph NNE3.2 kmh NNE 5.0 mph8.0 kmh 30.27 in1025.1 mb 0.22 in5.6 mm 0.00 in0.0 mm 0.26 in6.6 mm
06:44 AM 41.9°F5.5°C 37.7°F3.2°C 85% 6.0 mph NE9.7 kmh NE 6.0 mph9.7 kmh 30.27 in1025.1 mb 0.22 in5.6 mm 0.00 in0.0 mm 0.26 in6.6 mm
06:46 AM 41.9°F5.5°C 37.7°F3.2°C 85% 2.0 mph NE3.2 kmh NE 6.0 mph9.7 kmh 30.27 in1025.1 mb 0.22 in5.6 mm 0.00 in0.0 mm 0.26 in6.6 mm
06:48 AM 41.9°F5.5°C 37.7°F3.2°C 85% 3.0 mph NE4.8 kmh NE 6.0 mph9.7 kmh 30.27 in1025.1 mb 0.22 in5.6 mm 0.00 in0.0 mm 0.26 in6.6 mm
06:50 AM 41.9°F5.5°C 37.7°F3.2°C 85% 4.0 mph NE6.4 kmh NE 6.0 mph9.7 kmh 30.27 in1025.1 mb 0.22 in5.6 mm 0.00 in0.0 mm 0.26 in6.6 mm
06:52 AM 41.8°F5.4°C 37.6°F3.1°C 85% Calm Calm 6.0 mph9.7 kmh 30.27 in1025.1 mb 0.22 in5.6 mm 0.00 in0.0 mm 0.26 in6.6 mm
06:54 AM 41.9°F5.5°C 37.7°F3.2°C 85% 4.0 mph NE6.4 kmh NE 7.0 mph11.3 kmh 30.28 in1025.4 mb 0.22 in5.6 mm 0.00 in0.0 mm 0.26 in6.6 mm
06:56 AM 41.8°F5.4°C 37.6°F3.1°C 85% 3.0 mph NE4.8 kmh NE 7.0 mph11.3 kmh 30.28 in1025.4 mb 0.22 in5.6 mm 0.00 in0.0 mm 0.26 in6.6 mm
06:58 AM 41.8°F5.4°C 37.6°F3.1°C 85% 5.0 mph NNE8.0 kmh NNE 7.0 mph11.3 kmh 30.28 in1025.4 mb 0.22 in5.6 mm 0.00 in0.0 mm 0.26 in6.6 mm
07:00 AM 41.8°F5.4°C 37.6°F3.1°C 85% 3.0 mph NE4.8 kmh NE 7.0 mph11.3 kmh 30.27 in1025.1 mb 0.22 in5.6 mm 0.00 in0.0 mm 0.26 in6.6 mm
07:02 AM 41.7°F5.4°C 37.8°F3.2°C 86% 3.0 mph NE4.8 kmh NE 7.0 mph11.3 kmh 30.27 in1025.1 mb 0.22 in5.6 mm 0.00 in0.0 mm 0.26 in6.6 mm
07:04 AM 41.7°F5.4°C 37.8°F3.2°C 86% 1.0 mph NNE1.6 kmh NNE 3.0 mph4.8 kmh 30.27 in1025.1 mb 0.08 in2.0 mm 0.00 in0.0 mm 0.26 in6.6 mm
07:06 AM 41.8°F5.4°C 37.9°F3.3°C 86% 2.0 mph NE3.2 kmh NE 5.0 mph8.0 kmh 30.27 in1025.1 mb 0.08 in2.0 mm 0.00 in0.0 mm 0.26 in6.6 mm
07:08 AM 41.8°F5.4°C 37.9°F3.3°C 86% 1.0 mph NE1.6 kmh NE 5.0 mph8.0 kmh 30.28 in1025.4 mb 0.08 in2.0 mm 0.00 in0.0 mm 0.26 in6.6 mm
07:10 AM 41.8°F5.4°C 37.9°F3.3°C 86% 2.0 mph NE3.2 kmh NE 5.0 mph8.0 kmh 30.27 in1025.1 mb 0.09 in2.3 mm 0.30 in7.6 mm 0.27 in6.9 mm
07:12 AM 41.8°F5.4°C 37.9°F3.3°C 86% 3.0 mph NE4.8 kmh NE 7.0 mph11.3 kmh 30.27 in1025.1 mb 0.09 in2.3 mm 0.00 in0.0 mm 0.27 in6.9 mm
07:14 AM 41.8°F5.4°C 37.9°F3.3°C 86% 1.0 mph NNE1.6 kmh NNE 7.0 mph11.3 kmh 30.28 in1025.4 mb 0.09 in2.3 mm 0.00 in0.0 mm 0.27 in6.9 mm
07:16 AM 41.8°F5.4°C 37.9°F3.3°C 86% 2.0 mph N3.2 kmh N 7.0 mph11.3 kmh 30.27 in1025.1 mb 0.09 in2.3 mm 0.00 in0.0 mm 0.27 in6.9 mm
07:18 AM 41.8°F5.4°C 37.9°F3.3°C 86% 3.0 mph NNE4.8 kmh NNE 7.0 mph11.3 kmh 30.27 in1025.1 mb 0.09 in2.3 mm 0.00 in0.0 mm 0.27 in6.9 mm
07:20 AM 41.8°F5.4°C 37.9°F3.3°C 86% 3.0 mph NNE4.8 kmh NNE 7.0 mph11.3 kmh 30.27 in1025.1 mb 0.09 in2.3 mm 0.00 in0.0 mm 0.27 in6.9 mm
07:22 AM 41.8°F5.4°C 37.9°F3.3°C 86% 1.0 mph NE1.6 kmh NE 7.0 mph11.3 kmh 30.27 in1025.1 mb 0.09 in2.3 mm 0.00 in0.0 mm 0.27 in6.9 mm
07:24 AM 41.9°F5.5°C 38.0°F3.3°C 86% 4.0 mph ENE6.4 kmh ENE 7.0 mph11.3 kmh 30.26 in1024.7 mb 0.09 in2.3 mm 0.00 in0.0 mm 0.27 in6.9 mm
07:26 AM 41.9°F5.5°C 38.0°F3.3°C 86% 4.0 mph ENE6.4 kmh ENE 8.0 mph12.9 kmh 30.26 in1024.7 mb 0.09 in2.3 mm 0.00 in0.0 mm 0.27 in6.9 mm
07:28 AM 42.0°F5.6°C 38.1°F3.4°C 86% 4.0 mph ENE6.4 kmh ENE 9.0 mph14.5 kmh 30.25 in1024.4 mb 0.09 in2.3 mm 0.00 in0.0 mm 0.27 in6.9 mm
07:30 AM 42.0°F5.6°C 38.1°F3.4°C 86% 6.0 mph NE9.7 kmh NE 10.0 mph16.1 kmh 30.25 in1024.4 mb 0.09 in2.3 mm 0.00 in0.0 mm 0.27 in6.9 mm
07:32 AM 42.0°F5.6°C 38.4°F3.6°C 87% 5.0 mph ENE8.0 kmh ENE 10.0 mph16.1 kmh 30.25 in1024.4 mb 0.09 in2.3 mm 0.00 in0.0 mm 0.27 in6.9 mm
07:34 AM 42.1°F5.6°C 38.5°F3.6°C 87% 6.0 mph ENE9.7 kmh ENE 11.0 mph17.7 kmh 30.24 in1024.0 mb 0.02 in0.5 mm 0.00 in0.0 mm 0.27 in6.9 mm
07:36 AM 42.1°F5.6°C 38.5°F3.6°C 87% 2.0 mph ENE3.2 kmh ENE 11.0 mph17.7 kmh 30.24 in1024.0 mb 0.02 in0.5 mm 0.00 in0.0 mm 0.27 in6.9 mm
07:38 AM 42.1°F5.6°C 38.5°F3.6°C 87% 4.0 mph E6.4 kmh E 11.0 mph17.7 kmh 30.25 in1024.4 mb 0.02 in0.5 mm 0.00 in0.0 mm 0.27 in6.9 mm
07:40 AM 42.2°F5.7°C 38.6°F3.7°C 87% 6.0 mph ENE9.7 kmh ENE 11.0 mph17.7 kmh 30.25 in1024.4 mb 0.02 in0.5 mm 0.00 in0.0 mm 0.27 in6.9 mm
07:42 AM 42.3°F5.7°C 38.7°F3.7°C 87% 8.0 mph ENE12.9 kmh ENE 11.0 mph17.7 kmh 30.25 in1024.4 mb 0.02 in0.5 mm 0.00 in0.0 mm 0.27 in6.9 mm
07:44 AM 42.3°F5.7°C 38.7°F3.7°C 87% 9.0 mph NE14.5 kmh NE 11.0 mph17.7 kmh 30.23 in1023.7 mb 0.02 in0.5 mm 0.00 in0.0 mm 0.27 in6.9 mm
07:46 AM 42.3°F5.7°C 38.7°F3.7°C 87% 10.0 mph ENE16.1 kmh ENE 13.0 mph20.9 kmh 30.23 in1023.7 mb 0.02 in0.5 mm 0.00 in0.0 mm 0.27 in6.9 mm
07:48 AM 42.2°F5.7°C 38.6°F3.7°C 87% 5.0 mph ENE8.0 kmh ENE 13.0 mph20.9 kmh 30.23 in1023.7 mb 0.02 in0.5 mm 0.00 in0.0 mm 0.27 in6.9 mm
07:50 AM 42.3°F5.7°C 38.7°F3.7°C 87% 2.0 mph NE3.2 kmh NE 14.0 mph22.5 kmh 30.23 in1023.7 mb 0.02 in0.5 mm 0.00 in0.0 mm 0.27 in6.9 mm
07:52 AM 42.3°F5.7°C 38.7°F3.7°C 87% 11.0 mph ENE17.7 kmh ENE 14.0 mph22.5 kmh 30.24 in1024.0 mb 0.02 in0.5 mm 0.00 in0.0 mm 0.27 in6.9 mm
07:54 AM 42.3°F5.7°C 38.7°F3.7°C 87% 9.0 mph NE14.5 kmh NE 14.0 mph22.5 kmh 30.23 in1023.7 mb 0.02 in0.5 mm 0.00 in0.0 mm 0.27 in6.9 mm
07:56 AM 42.3°F5.7°C 38.7°F3.7°C 87% 6.0 mph ENE9.7 kmh ENE 14.0 mph22.5 kmh 30.24 in1024.0 mb 0.02 in0.5 mm 0.00 in0.0 mm 0.27 in6.9 mm
07:58 AM 42.3°F5.7°C 38.7°F3.7°C 87% 5.0 mph NE8.0 kmh NE 14.0 mph22.5 kmh 30.25 in1024.4 mb 0.02 in0.5 mm 0.00 in0.0 mm 0.27 in6.9 mm
08:00 AM 42.4°F5.8°C 38.8°F3.8°C 87% 4.0 mph NE6.4 kmh NE 14.0 mph22.5 kmh 30.25 in1024.4 mb 0.02 in0.5 mm 0.00 in0.0 mm 0.27 in6.9 mm
08:02 AM 42.4°F5.8°C 38.8°F3.8°C 87% 5.0 mph NE8.0 kmh NE 14.0 mph22.5 kmh 30.25 in1024.4 mb 0.02 in0.5 mm 0.00 in0.0 mm 0.27 in6.9 mm
08:04 AM 42.4°F5.8°C 38.8°F3.8°C 87% 4.0 mph ENE6.4 kmh ENE 9.0 mph14.5 kmh 30.25 in1024.4 mb 0.01 in0.3 mm 0.00 in0.0 mm 0.27 in6.9 mm
08:06 AM 42.4°F5.8°C 38.8°F3.8°C 87% 5.0 mph NE8.0 kmh NE 11.0 mph17.7 kmh 30.25 in1024.4 mb 0.01 in0.3 mm 0.00 in0.0 mm 0.27 in6.9 mm
08:08 AM 42.4°F5.8°C 38.8°F3.8°C 87% 6.0 mph NE9.7 kmh NE 11.0 mph17.7 kmh 30.25 in1024.4 mb 0.01 in0.3 mm 0.00 in0.0 mm 0.27 in6.9 mm
08:10 AM 42.4°F5.8°C 38.8°F3.8°C 87% 8.0 mph ENE12.9 kmh ENE 11.0 mph17.7 kmh 30.25 in1024.4 mb 0.01 in0.3 mm 0.00 in0.0 mm 0.27 in6.9 mm
08:12 AM 42.4°F5.8°C 38.8°F3.8°C 87% 5.0 mph NE8.0 kmh NE 11.0 mph17.7 kmh 30.25 in1024.4 mb 0.01 in0.3 mm 0.00 in0.0 mm 0.27 in6.9 mm
08:14 AM 42.4°F5.8°C 38.8°F3.8°C 87% 5.0 mph NE8.0 kmh NE 11.0 mph17.7 kmh 30.25 in1024.4 mb 0.01 in0.3 mm 0.00 in0.0 mm 0.27 in6.9 mm
08:16 AM 42.4°F5.8°C 38.8°F3.8°C 87% 7.0 mph NE11.3 kmh NE 11.0 mph17.7 kmh 30.25 in1024.4 mb 0.01 in0.3 mm 0.00 in0.0 mm 0.27 in6.9 mm
08:18 AM 42.4°F5.8°C 38.8°F3.8°C 87% 5.0 mph NE8.0 kmh NE 11.0 mph17.7 kmh 30.25 in1024.4 mb 0.01 in0.3 mm 0.00 in0.0 mm 0.27 in6.9 mm
08:20 AM 42.5°F5.8°C 38.9°F3.8°C 87% 4.0 mph NE6.4 kmh NE 11.0 mph17.7 kmh 30.25 in1024.4 mb 0.01 in0.3 mm 0.00 in0.0 mm 0.27 in6.9 mm
08:22 AM 42.5°F5.8°C 38.9°F3.8°C 87% 5.0 mph ENE8.0 kmh ENE 11.0 mph17.7 kmh 30.24 in1024.0 mb 0.01 in0.3 mm 0.00 in0.0 mm 0.27 in6.9 mm
08:24 AM 42.6°F5.9°C 39.0°F3.9°C 87% 9.0 mph NE14.5 kmh NE 11.0 mph17.7 kmh 30.25 in1024.4 mb 0.01 in0.3 mm 0.00 in0.0 mm 0.27 in6.9 mm
08:26 AM 42.6°F5.9°C 39.0°F3.9°C 87% 6.0 mph NE9.7 kmh NE 11.0 mph17.7 kmh 30.24 in1024.0 mb 0.01 in0.3 mm 0.00 in0.0 mm 0.27 in6.9 mm
08:28 AM 42.6°F5.9°C 39.0°F3.9°C 87% 3.0 mph NE4.8 kmh NE 11.0 mph17.7 kmh 30.24 in1024.0 mb 0.01 in0.3 mm 0.00 in0.0 mm 0.27 in6.9 mm
08:30 AM 42.6°F5.9°C 39.0°F3.9°C 87% 8.0 mph E12.9 kmh E 12.0 mph19.3 kmh 30.24 in1024.0 mb 0.01 in0.3 mm 0.00 in0.0 mm 0.27 in6.9 mm
08:32 AM 42.7°F5.9°C 39.1°F3.9°C 87% 6.0 mph NE9.7 kmh NE 12.0 mph19.3 kmh 30.24 in1024.0 mb 0.01 in0.3 mm 0.00 in0.0 mm 0.27 in6.9 mm
08:34 AM 42.7°F5.9°C 39.1°F3.9°C 87% 4.0 mph E6.4 kmh E 10.0 mph16.1 kmh 30.24 in1024.0 mb 0.00 in0.0 mm 0.00 in0.0 mm 0.27 in6.9 mm
08:36 AM 42.7°F5.9°C 39.1°F3.9°C 87% 10.0 mph ENE16.1 kmh ENE 10.0 mph16.1 kmh 30.24 in1024.0 mb 0.00 in0.0 mm 0.00 in0.0 mm 0.27 in6.9 mm
08:38 AM 42.8°F6.0°C 39.2°F4.0°C 87% 3.0 mph NE4.8 kmh NE 10.0 mph16.1 kmh 30.24 in1024.0 mb 0.00 in0.0 mm 0.00 in0.0 mm 0.27 in6.9 mm
08:40 AM 42.8°F6.0°C 39.2°F4.0°C 87% 3.0 mph NE4.8 kmh NE 10.0 mph16.1 kmh 30.24 in1024.0 mb 0.00 in0.0 mm 0.00 in0.0 mm 0.27 in6.9 mm
08:42 AM 42.9°F6.1°C 39.3°F4.1°C 87% 6.0 mph NNE9.7 kmh NNE 11.0 mph17.7 kmh 30.24 in1024.0 mb 0.00 in0.0 mm 0.00 in0.0 mm 0.27 in6.9 mm
08:44 AM 42.9°F6.1°C 39.3°F4.1°C 87% 9.0 mph E14.5 kmh E 12.0 mph19.3 kmh 30.24 in1024.0 mb 0.00 in0.0 mm 0.00 in0.0 mm 0.27 in6.9 mm
08:46 AM 42.9°F6.1°C 39.3°F4.1°C 87% 3.0 mph NE4.8 kmh NE 12.0 mph19.3 kmh 30.24 in1024.0 mb 0.00 in0.0 mm 0.00 in0.0 mm 0.27 in6.9 mm
08:48 AM 42.9°F6.1°C 39.3°F4.1°C 87% 2.0 mph NE3.2 kmh NE 12.0 mph19.3 kmh 30.24 in1024.0 mb 0.00 in0.0 mm 0.00 in0.0 mm 0.27 in6.9 mm
08:50 AM 43.0°F6.1°C 39.4°F4.1°C 87% 8.0 mph ENE12.9 kmh ENE 12.0 mph19.3 kmh 30.24 in1024.0 mb 0.00 in0.0 mm 0.00 in0.0 mm 0.27 in6.9 mm
08:52 AM 43.0°F6.1°C 39.4°F4.1°C 87% 5.0 mph NE8.0 kmh NE 12.0 mph19.3 kmh 30.24 in1024.0 mb 0.00 in0.0 mm 0.00 in0.0 mm 0.27 in6.9 mm
08:54 AM 43.0°F6.1°C 39.4°F4.1°C 87% 10.0 mph NE16.1 kmh NE 12.0 mph19.3 kmh 30.24 in1024.0 mb 0.00 in0.0 mm 0.00 in0.0 mm 0.27 in6.9 mm
08:56 AM 43.0°F6.1°C 39.4°F4.1°C 87% 2.0 mph ENE3.2 kmh ENE 12.0 mph19.3 kmh 30.24 in1024.0 mb 0.00 in0.0 mm 0.00 in0.0 mm 0.27 in6.9 mm
08:58 AM 43.1°F6.2°C 39.5°F4.2°C 87% 2.0 mph NE3.2 kmh NE 12.0 mph19.3 kmh 30.24 in1024.0 mb 0.00 in0.0 mm 0.00 in0.0 mm 0.27 in6.9 mm
09:00 AM 43.2°F6.2°C 39.6°F4.2°C 87% 7.0 mph NE11.3 kmh NE 12.0 mph19.3 kmh 30.24 in1024.0 mb 0.00 in0.0 mm 0.00 in0.0 mm 0.27 in6.9 mm
09:02 AM 43.1°F6.2°C 39.5°F4.2°C 87% 7.0 mph NE11.3 kmh NE 13.0 mph20.9 kmh 30.24 in1024.0 mb 0.00 in0.0 mm 0.00 in0.0 mm 0.27 in6.9 mm
09:04 AM 43.2°F6.2°C 39.6°F4.2°C 87% 3.0 mph E4.8 kmh E 7.0 mph11.3 kmh 30.24 in1024.0 mb 0.00 in0.0 mm 0.00 in0.0 mm 0.27 in6.9 mm
09:06 AM 43.2°F6.2°C 39.6°F4.2°C 87% 6.0 mph ENE9.7 kmh ENE 11.0 mph17.7 kmh 30.24 in1024.0 mb 0.00 in0.0 mm 0.00 in0.0 mm 0.27 in6.9 mm
09:08 AM 43.2°F6.2°C 39.6°F4.2°C 87% 9.0 mph E14.5 kmh E 11.0 mph17.7 kmh 30.24 in1024.0 mb 0.00 in0.0 mm 0.00 in0.0 mm 0.27 in6.9 mm
09:10 AM 43.2°F6.2°C 39.6°F4.2°C 87% 7.0 mph ENE11.3 kmh ENE 11.0 mph17.7 kmh 30.24 in1024.0 mb 0.00 in0.0 mm 0.00 in0.0 mm 0.27 in6.9 mm
09:12 AM 43.3°F6.3°C 39.7°F4.3°C 87% 3.0 mph NE4.8 kmh NE 11.0 mph17.7 kmh 30.25 in1024.4 mb 0.00 in0.0 mm 0.00 in0.0 mm 0.27 in6.9 mm
09:14 AM 43.3°F6.3°C 39.7°F4.3°C 87% 9.0 mph E14.5 kmh E 11.0 mph17.7 kmh 30.24 in1024.0 mb 0.00 in0.0 mm 0.00 in0.0 mm 0.27 in6.9 mm
09:16 AM 43.3°F6.3°C 39.7°F4.3°C 87% 11.0 mph ENE17.7 kmh ENE 11.0 mph17.7 kmh 30.24 in1024.0 mb 0.00 in0.0 mm 0.00 in0.0 mm 0.27 in6.9 mm
09:18 AM 43.3°F6.3°C 39.7°F4.3°C 87% 7.0 mph E11.3 kmh E 11.0 mph17.7 kmh 30.24 in1024.0 mb 0.00 in0.0 mm 0.00 in0.0 mm 0.27 in6.9 mm
09:20 AM 43.4°F6.3°C 39.8°F4.3°C 87% 10.0 mph ENE16.1 kmh ENE 11.0 mph17.7 kmh 30.24 in1024.0 mb 0.00 in0.0 mm 0.00 in0.0 mm 0.27 in6.9 mm
09:22 AM 43.3°F6.3°C 39.7°F4.3°C 87% 7.0 mph ENE11.3 kmh ENE 12.0 mph19.3 kmh 30.25 in1024.4 mb 0.00 in0.0 mm 0.00 in0.0 mm 0.27 in6.9 mm
09:24 AM 43.4°F6.3°C 39.8°F4.3°C 87% 6.0 mph NE9.7 kmh NE 12.0 mph19.3 kmh 30.25 in1024.4 mb 0.00 in0.0 mm 0.00 in0.0 mm 0.27 in6.9 mm
09:26 AM 43.4°F6.3°C 39.8°F4.3°C 87% 3.0 mph ENE4.8 kmh ENE 12.0 mph19.3 kmh 30.24 in1024.0 mb 0.00 in0.0 mm 0.00 in0.0 mm 0.27 in6.9 mm
09:28 AM 43.4°F6.3°C 39.8°F4.3°C 87% 10.0 mph NE16.1 kmh NE 12.0 mph19.3 kmh 30.24 in1024.0 mb 0.00 in0.0 mm 0.00 in0.0 mm 0.27 in6.9 mm
09:30 AM 43.4°F6.3°C 39.8°F4.3°C 87% 5.0 mph NE8.0 kmh NE 12.0 mph19.3 kmh 30.24 in1024.0 mb 0.00 in0.0 mm 0.00 in0.0 mm 0.27 in6.9 mm
09:32 AM 43.5°F6.4°C 39.9°F4.4°C 87% 6.0 mph ENE9.7 kmh ENE 12.0 mph19.3 kmh 30.24 in1024.0 mb 0.00 in0.0 mm 0.00 in0.0 mm 0.27 in6.9 mm
09:34 AM 43.5°F6.4°C 39.9°F4.4°C 87% 7.0 mph E11.3 kmh E 11.0 mph17.7 kmh 30.24 in1024.0 mb 0.00 in0.0 mm 0.00 in0.0 mm 0.27 in6.9 mm
09:36 AM 43.5°F6.4°C 39.9°F4.4°C 87% 4.0 mph NE6.4 kmh NE 11.0 mph17.7 kmh 30.24 in1024.0 mb 0.00 in0.0 mm 0.00 in0.0 mm 0.27 in6.9 mm
09:38 AM 43.6°F6.4°C 40.0°F4.4°C 87% 5.0 mph NE8.0 kmh NE 11.0 mph17.7 kmh 30.24 in1024.0 mb 0.00 in0.0 mm 0.00 in0.0 mm 0.27 in6.9 mm
09:40 AM 43.7°F6.5°C 40.1°F4.5°C 87% 10.0 mph NE16.1 kmh NE 12.0 mph19.3 kmh 30.24 in1024.0 mb 0.00 in0.0 mm 0.00 in0.0 mm 0.27 in6.9 mm
09:42 AM 43.6°F6.4°C 40.0°F4.4°C 87% 1.0 mph E1.6 kmh E 12.0 mph19.3 kmh 30.24 in1024.0 mb 0.00 in0.0 mm 0.00 in0.0 mm 0.27 in6.9 mm
09:44 AM 43.7°F6.5°C 40.1°F4.5°C 87% 3.0 mph ENE4.8 kmh ENE 12.0 mph19.3 kmh 30.24 in1024.0 mb 0.00 in0.0 mm 0.00 in0.0 mm 0.27 in6.9 mm
09:46 AM 43.7°F6.5°C 40.1°F4.5°C 87% 4.0 mph NE6.4 kmh NE 12.0 mph19.3 kmh 30.24 in1024.0 mb 0.00 in0.0 mm 0.00 in0.0 mm 0.27 in6.9 mm
09:48 AM 43.7°F6.5°C 39.8°F4.3°C 86% 5.0 mph E8.0 kmh E 12.0 mph19.3 kmh 30.24 in1024.0 mb 0.00 in0.0 mm 0.00 in0.0 mm 0.27 in6.9 mm
09:50 AM 43.7°F6.5°C 39.8°F4.3°C 86% 3.0 mph E4.8 kmh E 12.0 mph19.3 kmh 30.24 in1024.0 mb 0.00 in0.0 mm 0.00 in0.0 mm 0.27 in6.9 mm
09:52 AM 43.8°F6.6°C 39.9°F4.4°C 86% 5.0 mph E8.0 kmh E 13.0 mph20.9 kmh 30.24 in1024.0 mb 0.00 in0.0 mm 0.00 in0.0 mm 0.27 in6.9 mm
09:54 AM 43.8°F6.6°C 39.9°F4.4°C 86% 4.0 mph ENE6.4 kmh ENE 13.0 mph20.9 kmh 30.25 in1024.4 mb 0.00 in0.0 mm 0.00 in0.0 mm 0.27 in6.9 mm
09:56 AM 43.8°F6.6°C 39.9°F4.4°C 86% 1.0 mph NE1.6 kmh NE 13.0 mph20.9 kmh 30.25 in1024.4 mb 0.00 in0.0 mm 0.00 in0.0 mm 0.27 in6.9 mm
09:58 AM 43.9°F6.6°C 40.0°F4.4°C 86% 5.0 mph NNE8.0 kmh NNE 13.0 mph20.9 kmh 30.24 in1024.0 mb 0.00 in0.0 mm 0.00 in0.0 mm 0.27 in6.9 mm
10:00 AM 43.9°F6.6°C 40.0°F4.4°C 86% 4.0 mph NE6.4 kmh NE 13.0 mph20.9 kmh 30.24 in1024.0 mb 0.00 in0.0 mm 0.00 in0.0 mm 0.27 in6.9 mm
10:02 AM 44.0°F6.7°C 40.1°F4.5°C 86% 7.0 mph NE11.3 kmh NE 13.0 mph20.9 kmh 30.24 in1024.0 mb 0.00 in0.0 mm 0.00 in0.0 mm 0.27 in6.9 mm
10:04 AM 44.0°F6.7°C 40.1°F4.5°C 86% 1.0 mph NE1.6 kmh NE 4.0 mph6.4 kmh 30.25 in1024.4 mb 0.00 in0.0 mm 0.00 in0.0 mm 0.27 in6.9 mm
10:06 AM 44.1°F6.7°C 40.2°F4.6°C 86% 5.0 mph E8.0 kmh E 5.0 mph8.0 kmh 30.25 in1024.4 mb 0.00 in0.0 mm 0.00 in0.0 mm 0.27 in6.9 mm
10:08 AM 44.1°F6.7°C 40.2°F4.6°C 86% 6.0 mph NE9.7 kmh NE 8.0 mph12.9 kmh 30.24 in1024.0 mb 0.00 in0.0 mm 0.00 in0.0 mm 0.27 in6.9 mm
10:10 AM 44.1°F6.7°C 40.2°F4.6°C 86% 10.0 mph E16.1 kmh E 11.0 mph17.7 kmh 30.25 in1024.4 mb 0.00 in0.0 mm 0.00 in0.0 mm 0.27 in6.9 mm
10:12 AM 44.1°F6.7°C 39.9°F4.4°C 85% 7.0 mph ENE11.3 kmh ENE 12.0 mph19.3 kmh 30.24 in1024.0 mb 0.00 in0.0 mm 0.00 in0.0 mm 0.27 in6.9 mm
10:14 AM 44.1°F6.7°C 39.9°F4.4°C 85% 5.0 mph ENE8.0 kmh ENE 12.0 mph19.3 kmh 30.24 in1024.0 mb 0.00 in0.0 mm 0.00 in0.0 mm 0.27 in6.9 mm
10:16 AM 44.2°F6.8°C 40.0°F4.4°C 85% 10.0 mph E16.1 kmh E 12.0 mph19.3 kmh 30.24 in1024.0 mb 0.00 in0.0 mm 0.00 in0.0 mm 0.27 in6.9 mm
10:18 AM 44.2°F6.8°C 40.0°F4.4°C 85% 8.0 mph E12.9 kmh E 13.0 mph20.9 kmh 30.24 in1024.0 mb 0.00 in0.0 mm 0.00 in0.0 mm 0.27 in6.9 mm
10:20 AM 44.2°F6.8°C 40.0°F4.4°C 85% 12.0 mph ENE19.3 kmh ENE 13.0 mph20.9 kmh 30.24 in1024.0 mb 0.00 in0.0 mm 0.00 in0.0 mm 0.27 in6.9 mm
10:22 AM 44.3°F6.8°C 40.1°F4.5°C 85% 3.0 mph E4.8 kmh E 13.0 mph20.9 kmh 30.24 in1024.0 mb 0.00 in0.0 mm 0.00 in0.0 mm 0.27 in6.9 mm
10:24 AM 44.3°F6.8°C 39.8°F4.3°C 84% 5.0 mph ENE8.0 kmh ENE 13.0 mph20.9 kmh 30.23 in1023.7 mb 0.00 in0.0 mm 0.00 in0.0 mm 0.27 in6.9 mm
10:26 AM 44.3°F6.8°C 40.1°F4.5°C 85% 5.0 mph NE8.0 kmh NE 13.0 mph20.9 kmh 30.23 in1023.7 mb 0.00 in0.0 mm 0.00 in0.0 mm 0.27 in6.9 mm
10:28 AM 44.4°F6.9°C 40.2°F4.6°C 85% 6.0 mph NE9.7 kmh NE 13.0 mph20.9 kmh 30.23 in1023.7 mb 0.00 in0.0 mm 0.00 in0.0 mm 0.27 in6.9 mm
10:30 AM 44.4°F6.9°C 39.9°F4.4°C 84% 11.0 mph E17.7 kmh E 14.0 mph22.5 kmh 30.23 in1023.7 mb 0.00 in0.0 mm 0.00 in0.0 mm 0.27 in6.9 mm
10:32 AM 44.5°F6.9°C 40.0°F4.4°C 84% 14.0 mph NE22.5 kmh NE 15.0 mph24.1 kmh 30.23 in1023.7 mb 0.00 in0.0 mm 0.00 in0.0 mm 0.27 in6.9 mm
10:34 AM 44.5°F6.9°C 40.0°F4.4°C 84% 14.0 mph E22.5 kmh E 14.0 mph22.5 kmh 30.23 in1023.7 mb 0.00 in0.0 mm 0.00 in0.0 mm 0.27 in6.9 mm
10:36 AM 44.5°F6.9°C 40.0°F4.4°C 84% 6.0 mph NE9.7 kmh NE 16.0 mph25.7 kmh 30.22 in1023.4 mb 0.00 in0.0 mm 0.00 in0.0 mm 0.27 in6.9 mm
10:38 AM 44.5°F6.9°C 40.0°F4.4°C 84% 3.0 mph ENE4.8 kmh ENE 16.0 mph25.7 kmh 30.22 in1023.4 mb 0.00 in0.0 mm 0.00 in0.0 mm 0.27 in6.9 mm
10:40 AM 44.6°F7.0°C 40.1°F4.5°C 84% 11.0 mph NE17.7 kmh NE 16.0 mph25.7 kmh 30.22 in1023.4 mb 0.00 in0.0 mm 0.00 in0.0 mm 0.27 in6.9 mm
10:42 AM 44.6°F7.0°C 39.8°F4.3°C 83% 9.0 mph ENE14.5 kmh ENE 16.0 mph25.7 kmh 30.23 in1023.7 mb 0.00 in0.0 mm 0.00 in0.0 mm 0.27 in6.9 mm
10:44 AM 44.6°F7.0°C 39.8°F4.3°C 83% 10.0 mph NE16.1 kmh NE 16.0 mph25.7 kmh 30.22 in1023.4 mb 0.00 in0.0 mm 0.00 in0.0 mm 0.27 in6.9 mm
10:46 AM 44.7°F7.1°C 39.9°F4.4°C 83% 5.0 mph NE8.0 kmh NE 16.0 mph25.7 kmh 30.23 in1023.7 mb 0.00 in0.0 mm 0.00 in0.0 mm 0.27 in6.9 mm
10:48 AM 44.7°F7.1°C 39.9°F4.4°C 83% 14.0 mph ENE22.5 kmh ENE 16.0 mph25.7 kmh 30.22 in1023.4 mb 0.00 in0.0 mm 0.00 in0.0 mm 0.27 in6.9 mm
10:50 AM 44.7°F7.1°C 39.9°F4.4°C 83% 8.0 mph E12.9 kmh E 16.0 mph25.7 kmh 30.22 in1023.4 mb 0.00 in0.0 mm 0.00 in0.0 mm 0.27 in6.9 mm
10:52 AM 44.7°F7.1°C 39.9°F4.4°C 83% 7.0 mph ENE11.3 kmh ENE 16.0 mph25.7 kmh 30.22 in1023.4 mb 0.00 in0.0 mm 0.00 in0.0 mm 0.27 in6.9 mm
10:54 AM 44.8°F7.1°C 40.0°F4.4°C 83% 7.0 mph NE11.3 kmh NE 16.0 mph25.7 kmh 30.22 in1023.4 mb 0.00 in0.0 mm 0.00 in0.0 mm 0.27 in6.9 mm
10:56 AM 44.8°F7.1°C 40.0°F4.4°C 83% 3.0 mph E4.8 kmh E 16.0 mph25.7 kmh 30.22 in1023.4 mb 0.00 in0.0 mm 0.00 in0.0 mm 0.27 in6.9 mm
10:58 AM 44.8°F7.1°C 39.7°F4.3°C 82% 10.0 mph E16.1 kmh E 16.0 mph25.7 kmh 30.22 in1023.4 mb 0.00 in0.0 mm 0.00 in0.0 mm 0.27 in6.9 mm
11:00 AM 44.8°F7.1°C 39.7°F4.3°C 82% 5.0 mph ENE8.0 kmh ENE 16.0 mph25.7 kmh 30.22 in1023.4 mb 0.00 in0.0 mm 0.00 in0.0 mm 0.27 in6.9 mm
11:02 AM 44.9°F7.2°C 39.8°F4.3°C 82% 8.0 mph E12.9 kmh E 16.0 mph25.7 kmh 30.22 in1023.4 mb 0.00 in0.0 mm 0.00 in0.0 mm 0.27 in6.9 mm
11:04 AM 44.9°F7.2°C 39.8°F4.3°C 82% 4.0 mph NE6.4 kmh NE 8.0 mph12.9 kmh 30.23 in1023.7 mb 0.00 in0.0 mm 0.00 in0.0 mm 0.27 in6.9 mm
11:06 AM 45.0°F7.2°C 39.9°F4.4°C 82% 14.0 mph ENE22.5 kmh ENE 14.0 mph22.5 kmh 30.22 in1023.4 mb 0.00 in0.0 mm 0.00 in0.0 mm 0.27 in6.9 mm
11:08 AM 44.9°F7.2°C 39.8°F4.3°C 82% 5.0 mph NE8.0 kmh NE 16.0 mph25.7 kmh 30.22 in1023.4 mb 0.00 in0.0 mm 0.00 in0.0 mm 0.27 in6.9 mm
11:10 AM 45.0°F7.2°C 39.9°F4.4°C 82% 7.0 mph ENE11.3 kmh ENE 16.0 mph25.7 kmh 30.22 in1023.4 mb 0.00 in0.0 mm 0.00 in0.0 mm 0.27 in6.9 mm
11:12 AM 44.9°F7.2°C 39.8°F4.3°C 82% 5.0 mph E8.0 kmh E 16.0 mph25.7 kmh 30.22 in1023.4 mb 0.00 in0.0 mm 0.00 in0.0 mm 0.27 in6.9 mm
11:14 AM 44.9°F7.2°C 39.8°F4.3°C 82% 6.0 mph ENE9.7 kmh ENE 16.0 mph25.7 kmh 30.22 in1023.4 mb 0.00 in0.0 mm 0.00 in0.0 mm 0.27 in6.9 mm
11:16 AM 45.0°F7.2°C 39.9°F4.4°C 82% 9.0 mph E14.5 kmh E 16.0 mph25.7 kmh 30.21 in1023.0 mb 0.00 in0.0 mm 0.00 in0.0 mm 0.27 in6.9 mm
11:18 AM 44.9°F7.2°C 39.8°F4.3°C 82% 9.0 mph E14.5 kmh E 16.0 mph25.7 kmh 30.21 in1023.0 mb 0.00 in0.0 mm 0.00 in0.0 mm 0.27 in6.9 mm
11:20 AM 45.0°F7.2°C 39.9°F4.4°C 82% 10.0 mph NE16.1 kmh NE 16.0 mph25.7 kmh 30.21 in1023.0 mb 0.00 in0.0 mm 0.00 in0.0 mm 0.27 in6.9 mm
11:22 AM 45.0°F7.2°C 39.9°F4.4°C 82% 10.0 mph NE16.1 kmh NE 16.0 mph25.7 kmh 30.22 in1023.4 mb 0.00 in0.0 mm 0.00 in0.0 mm 0.27 in6.9 mm
11:24 AM 45.0°F7.2°C 39.9°F4.4°C 82% 9.0 mph E14.5 kmh E 16.0 mph25.7 kmh 30.22 in1023.4 mb 0.00 in0.0 mm 0.00 in0.0 mm 0.27 in6.9 mm
11:26 AM 45.0°F7.2°C 39.9°F4.4°C 82% 9.0 mph E14.5 kmh E 16.0 mph25.7 kmh 30.22 in1023.4 mb 0.00 in0.0 mm 0.00 in0.0 mm 0.27 in6.9 mm
11:28 AM 45.0°F7.2°C 39.9°F4.4°C 82% 3.0 mph E4.8 kmh E 16.0 mph25.7 kmh 30.21 in1023.0 mb 0.00 in0.0 mm 0.00 in0.0 mm 0.27 in6.9 mm
11:30 AM 45.0°F7.2°C 39.9°F4.4°C 82% 5.0 mph E8.0 kmh E 16.0 mph25.7 kmh 30.21 in1023.0 mb 0.00 in0.0 mm 0.00 in0.0 mm 0.27 in6.9 mm
11:32 AM 45.0°F7.2°C 39.9°F4.4°C 82% 10.0 mph E16.1 kmh E 16.0 mph25.7 kmh 30.22 in1023.4 mb 0.00 in0.0 mm 0.00 in0.0 mm 0.27 in6.9 mm
11:34 AM 45.0°F7.2°C 39.9°F4.4°C 82% 5.0 mph ENE8.0 kmh ENE 12.0 mph19.3 kmh 30.22 in1023.4 mb 0.00 in0.0 mm 0.00 in0.0 mm 0.27 in6.9 mm
11:36 AM 45.1°F7.3°C 39.9°F4.4°C 82% 3.0 mph E4.8 kmh E 12.0 mph19.3 kmh 30.22 in1023.4 mb 0.00 in0.0 mm 0.00 in0.0 mm 0.27 in6.9 mm
11:38 AM 45.2°F7.3°C 40.4°F4.7°C 83% 2.0 mph NE3.2 kmh NE 12.0 mph19.3 kmh 30.21 in1023.0 mb 0.00 in0.0 mm 0.00 in0.0 mm 0.27 in6.9 mm
11:40 AM 45.2°F7.3°C 40.4°F4.7°C 83% 9.0 mph ESE14.5 kmh ESE 12.0 mph19.3 kmh 30.21 in1023.0 mb 0.00 in0.0 mm 0.00 in0.0 mm 0.27 in6.9 mm
11:42 AM 45.3°F7.4°C 40.1°F4.5°C 82% 7.0 mph E11.3 kmh E 12.0 mph19.3 kmh 30.21 in1023.0 mb 0.00 in0.0 mm 0.00 in0.0 mm 0.27 in6.9 mm
11:44 AM 45.3°F7.4°C 40.1°F4.5°C 82% 7.0 mph E11.3 kmh E 12.0 mph19.3 kmh 30.21 in1023.0 mb 0.00 in0.0 mm 0.00 in0.0 mm 0.27 in6.9 mm
11:46 AM 45.4°F7.4°C 40.2°F4.6°C 82% 3.0 mph E4.8 kmh E 12.0 mph19.3 kmh 30.21 in1023.0 mb 0.00 in0.0 mm 0.00 in0.0 mm 0.27 in6.9 mm
11:48 AM 45.4°F7.4°C 40.2°F4.6°C 82% 6.0 mph E9.7 kmh E 12.0 mph19.3 kmh 30.21 in1023.0 mb 0.00 in0.0 mm 0.00 in0.0 mm 0.27 in6.9 mm
11:50 AM 45.5°F7.5°C 40.3°F4.6°C 82% 8.0 mph E12.9 kmh E 12.0 mph19.3 kmh 30.21 in1023.0 mb 0.00 in0.0 mm 0.00 in0.0 mm 0.27 in6.9 mm
11:52 AM 45.4°F7.4°C 40.2°F4.6°C 82% 9.0 mph E14.5 kmh E 12.0 mph19.3 kmh 30.20 in1022.7 mb 0.00 in0.0 mm 0.00 in0.0 mm 0.27 in6.9 mm
11:54 AM 45.5°F7.5°C 40.3°F4.6°C 82% 7.0 mph E11.3 kmh E 14.0 mph22.5 kmh 30.20 in1022.7 mb 0.00 in0.0 mm 0.00 in0.0 mm 0.27 in6.9 mm
11:56 AM 45.5°F7.5°C 40.0°F4.4°C 81% 4.0 mph E6.4 kmh E 14.0 mph22.5 kmh 30.19 in1022.4 mb 0.00 in0.0 mm 0.00 in0.0 mm 0.27 in6.9 mm
11:58 AM 45.6°F7.6°C 40.1°F4.5°C 81% 7.0 mph ESE11.3 kmh ESE 14.0 mph22.5 kmh 30.19 in1022.4 mb 0.00 in0.0 mm 0.00 in0.0 mm 0.27 in6.9 mm
12:00 PM 45.6°F7.6°C 40.1°F4.5°C 81% 7.0 mph E11.3 kmh E 14.0 mph22.5 kmh 30.19 in1022.4 mb 0.00 in0.0 mm 0.00 in0.0 mm 0.27 in6.9 mm
12:02 PM 45.7°F7.6°C 40.2°F4.6°C 81% 5.0 mph ENE8.0 kmh ENE 14.0 mph22.5 kmh 30.19 in1022.4 mb 0.00 in0.0 mm 0.00 in0.0 mm 0.27 in6.9 mm
12:04 PM 45.7°F7.6°C 40.2°F4.6°C 81% 6.0 mph E9.7 kmh E 13.0 mph20.9 kmh 30.19 in1022.4 mb 0.00 in0.0 mm 0.00 in0.0 mm 0.27 in6.9 mm
12:06 PM 45.7°F7.6°C 40.2°F4.6°C 81% 2.0 mph E3.2 kmh E 13.0 mph20.9 kmh 30.19 in1022.4 mb 0.00 in0.0 mm 0.00 in0.0 mm 0.27 in6.9 mm
12:08 PM 45.8°F7.7°C 40.3°F4.6°C 81% 4.0 mph ENE6.4 kmh ENE 13.0 mph20.9 kmh 30.19 in1022.4 mb 0.00 in0.0 mm 0.00 in0.0 mm 0.27 in6.9 mm
12:10 PM 45.8°F7.7°C 40.3°F4.6°C 81% 7.0 mph ESE11.3 kmh ESE 13.0 mph20.9 kmh 30.19 in1022.4 mb 0.00 in0.0 mm 0.00 in0.0 mm 0.27 in6.9 mm
12:12 PM 45.7°F7.6°C 40.2°F4.6°C 81% 10.0 mph E16.1 kmh E 13.0 mph20.9 kmh 30.19 in1022.4 mb 0.00 in0.0 mm 0.00 in0.0 mm 0.27 in6.9 mm
12:14 PM 45.7°F7.6°C 40.2°F4.6°C 81% 13.0 mph E20.9 kmh E 13.0 mph20.9 kmh 30.19 in1022.4 mb 0.00 in0.0 mm 0.00 in0.0 mm 0.27 in6.9 mm
12:16 PM 45.6°F7.6°C 39.8°F4.3°C 80% 4.0 mph NE6.4 kmh NE 14.0 mph22.5 kmh 30.19 in1022.4 mb 0.00 in0.0 mm 0.00 in0.0 mm 0.27 in6.9 mm
12:18 PM 45.6°F7.6°C 40.1°F4.5°C 81% 8.0 mph E12.9 kmh E 14.0 mph22.5 kmh 30.19 in1022.4 mb 0.00 in0.0 mm 0.00 in0.0 mm 0.27 in6.9 mm
12:20 PM 45.6°F7.6°C 39.8°F4.3°C 80% 14.0 mph SE22.5 kmh SE 14.0 mph22.5 kmh 30.19 in1022.4 mb 0.00 in0.0 mm 0.00 in0.0 mm 0.27 in6.9 mm
12:22 PM 45.6°F7.6°C 39.8°F4.3°C 80% 10.0 mph ENE16.1 kmh ENE 14.0 mph22.5 kmh 30.18 in1022.0 mb 0.00 in0.0 mm 0.00 in0.0 mm 0.27 in6.9 mm
12:24 PM 45.6°F7.6°C 39.8°F4.3°C 80% 2.0 mph E3.2 kmh E 14.0 mph22.5 kmh 30.18 in1022.0 mb 0.00 in0.0 mm 0.00 in0.0 mm 0.27 in6.9 mm
12:26 PM 45.6°F7.6°C 40.1°F4.5°C 81% 9.0 mph E14.5 kmh E 15.0 mph24.1 kmh 30.18 in1022.0 mb 0.00 in0.0 mm 0.00 in0.0 mm 0.27 in6.9 mm
12:28 PM 45.6°F7.6°C 40.1°F4.5°C 81% 6.0 mph ESE9.7 kmh ESE 15.0 mph24.1 kmh 30.17 in1021.7 mb 0.00 in0.0 mm 0.00 in0.0 mm 0.27 in6.9 mm
12:30 PM 45.6°F7.6°C 39.8°F4.3°C 80% 9.0 mph SE14.5 kmh SE 16.0 mph25.7 kmh 30.17 in1021.7 mb 0.00 in0.0 mm 0.00 in0.0 mm 0.27 in6.9 mm
12:32 PM 45.6°F7.6°C 40.1°F4.5°C 81% 8.0 mph E12.9 kmh E 16.0 mph25.7 kmh 30.17 in1021.7 mb 0.00 in0.0 mm 0.00 in0.0 mm 0.27 in6.9 mm
12:34 PM 45.6°F7.6°C 40.1°F4.5°C 81% 10.0 mph NE16.1 kmh NE 10.0 mph16.1 kmh 30.17 in1021.7 mb 0.00 in0.0 mm 0.00 in0.0 mm 0.27 in6.9 mm
12:35 PM 45.6°F7.6°C 40.1°F4.5°C 81% 10.0 mph E16.1 kmh E 10.0 mph16.1 kmh 30.17 in1021.7 mb 0.00 in0.0 mm 0.00 in0.0 mm 0.27 in6.9 mm
12:38 PM 45.6°F7.6°C 40.1°F4.5°C 81% 8.0 mph ENE12.9 kmh ENE 13.0 mph20.9 kmh 30.17 in1021.7 mb 0.00 in0.0 mm 0.00 in0.0 mm 0.27 in6.9 mm
12:40 PM 45.5°F7.5°C 40.0°F4.4°C 81% 5.0 mph NE8.0 kmh NE 13.0 mph20.9 kmh 30.17 in1021.7 mb 0.00 in0.0 mm 0.00 in0.0 mm 0.27 in6.9 mm
12:42 PM 45.5°F7.5°C 40.0°F4.4°C 81% 8.0 mph E12.9 kmh E 13.0 mph20.9 kmh 30.17 in1021.7 mb 0.00 in0.0 mm 0.00 in0.0 mm 0.27 in6.9 mm
12:44 PM 45.6°F7.6°C 40.1°F4.5°C 81% 6.0 mph NE9.7 kmh NE 13.0 mph20.9 kmh 30.16 in1021.3 mb 0.00 in0.0 mm 0.00 in0.0 mm 0.27 in6.9 mm
12:45 PM 45.5°F7.5°C 40.0°F4.4°C 81% 5.0 mph NE8.0 kmh NE 13.0 mph20.9 kmh 30.17 in1021.7 mb 0.00 in0.0 mm 0.00 in0.0 mm 0.27 in6.9 mm
12:48 PM 45.5°F7.5°C 40.0°F4.4°C 81% 2.0 mph NE3.2 kmh NE 13.0 mph20.9 kmh 30.16 in1021.3 mb 0.00 in0.0 mm 0.00 in0.0 mm 0.27 in6.9 mm
12:50 PM 45.5°F7.5°C 40.0°F4.4°C 81% 6.0 mph ENE9.7 kmh ENE 13.0 mph20.9 kmh 30.17 in1021.7 mb 0.00 in0.0 mm 0.00 in0.0 mm 0.27 in6.9 mm
12:52 PM 45.5°F7.5°C 40.0°F4.4°C 81% 12.0 mph ENE19.3 kmh ENE 14.0 mph22.5 kmh 30.16 in1021.3 mb 0.00 in0.0 mm 0.00 in0.0 mm 0.27 in6.9 mm
12:54 PM 45.4°F7.4°C 40.2°F4.6°C 82% 3.0 mph E4.8 kmh E 14.0 mph22.5 kmh 30.16 in1021.3 mb 0.00 in0.0 mm 0.00 in0.0 mm 0.27 in6.9 mm
12:56 PM 45.4°F7.4°C 40.2°F4.6°C 82% 7.0 mph E11.3 kmh E 14.0 mph22.5 kmh 30.16 in1021.3 mb 0.00 in0.0 mm 0.00 in0.0 mm 0.27 in6.9 mm
12:58 PM 45.4°F7.4°C 40.2°F4.6°C 82% 7.0 mph E11.3 kmh E 14.0 mph22.5 kmh 30.16 in1021.3 mb 0.00 in0.0 mm 0.00 in0.0 mm 0.27 in6.9 mm
01:00 PM 45.4°F7.4°C 40.2°F4.6°C 82% 11.0 mph E17.7 kmh E 14.0 mph22.5 kmh 30.16 in1021.3 mb 0.00 in0.0 mm 0.00 in0.0 mm 0.27 in6.9 mm
01:02 PM 45.4°F7.4°C 40.2°F4.6°C 82% 8.0 mph E12.9 kmh E 14.0 mph22.5 kmh 30.16 in1021.3 mb 0.00 in0.0 mm 0.00 in0.0 mm 0.27 in6.9 mm
01:04 PM 45.4°F7.4°C 40.2°F4.6°C 82% 4.0 mph NE6.4 kmh NE 10.0 mph16.1 kmh 30.16 in1021.3 mb 0.00 in0.0 mm 0.00 in0.0 mm 0.27 in6.9 mm
01:06 PM 45.5°F7.5°C 40.3°F4.6°C 82% 3.0 mph E4.8 kmh E 10.0 mph16.1 kmh 30.17 in1021.7 mb 0.00 in0.0 mm 0.00 in0.0 mm 0.27 in6.9 mm
01:08 PM 45.5°F7.5°C 40.3°F4.6°C 82% 9.0 mph ENE14.5 kmh ENE 10.0 mph16.1 kmh 30.16 in1021.3 mb 0.00 in0.0 mm 0.00 in0.0 mm 0.27 in6.9 mm
01:10 PM 45.6°F7.6°C 40.4°F4.7°C 82% 7.0 mph ESE11.3 kmh ESE 10.0 mph16.1 kmh 30.16 in1021.3 mb 0.00 in0.0 mm 0.00 in0.0 mm 0.27 in6.9 mm
01:12 PM 45.7°F7.6°C 40.5°F4.7°C 82% 1.0 mph ESE1.6 kmh ESE 10.0 mph16.1 kmh 30.16 in1021.3 mb 0.00 in0.0 mm 0.00 in0.0 mm 0.27 in6.9 mm
01:14 PM 45.7°F7.6°C 40.5°F4.7°C 82% 9.0 mph ENE14.5 kmh ENE 10.0 mph16.1 kmh 30.16 in1021.3 mb 0.00 in0.0 mm 0.00 in0.0 mm 0.27 in6.9 mm
01:16 PM 45.7°F7.6°C 40.5°F4.7°C 82% 8.0 mph ENE12.9 kmh ENE 12.0 mph19.3 kmh 30.16 in1021.3 mb 0.00 in0.0 mm 0.00 in0.0 mm 0.27 in6.9 mm
01:18 PM 45.8°F7.7°C 40.6°F4.8°C 82% 12.0 mph E19.3 kmh E 12.0 mph19.3 kmh 30.15 in1021.0 mb 0.00 in0.0 mm 0.00 in0.0 mm 0.27 in6.9 mm
01:20 PM 45.8°F7.7°C 40.6°F4.8°C 82% 3.0 mph NE4.8 kmh NE 12.0 mph19.3 kmh 30.15 in1021.0 mb 0.00 in0.0 mm 0.00 in0.0 mm 0.27 in6.9 mm
01:22 PM 45.8°F7.7°C 40.6°F4.8°C 82% 11.0 mph ENE17.7 kmh ENE 12.0 mph19.3 kmh 30.15 in1021.0 mb 0.00 in0.0 mm 0.00 in0.0 mm 0.27 in6.9 mm
01:24 PM 45.8°F7.7°C 40.6°F4.8°C 82% 2.0 mph E3.2 kmh E 12.0 mph19.3 kmh 30.15 in1021.0 mb 0.00 in0.0 mm 0.00 in0.0 mm 0.27 in6.9 mm
01:26 PM 45.9°F7.7°C 40.7°F4.8°C 82% 3.0 mph E4.8 kmh E 12.0 mph19.3 kmh 30.15 in1021.0 mb 0.00 in0.0 mm 0.00 in0.0 mm 0.27 in6.9 mm
01:28 PM 45.9°F7.7°C 40.4°F4.7°C 81% 7.0 mph E11.3 kmh E 12.0 mph19.3 kmh 30.15 in1021.0 mb 0.00 in0.0 mm 0.00 in0.0 mm 0.27 in6.9 mm
01:30 PM 45.9°F7.7°C 40.4°F4.7°C 81% 5.0 mph ENE8.0 kmh ENE 12.0 mph19.3 kmh 30.15 in1021.0 mb 0.00 in0.0 mm 0.00 in0.0 mm 0.27 in6.9 mm
01:32 PM 45.9°F7.7°C 40.4°F4.7°C 81% 4.0 mph E6.4 kmh E 12.0 mph19.3 kmh 30.15 in1021.0 mb 0.00 in0.0 mm 0.00 in0.0 mm 0.27 in6.9 mm
01:34 PM 45.9°F7.7°C 40.4°F4.7°C 81% 11.0 mph NE17.7 kmh NE 11.0 mph17.7 kmh 30.16 in1021.3 mb 0.00 in0.0 mm 0.00 in0.0 mm 0.27 in6.9 mm
01:36 PM 45.9°F7.7°C 40.4°F4.7°C 81% 5.0 mph NE8.0 kmh NE 11.0 mph17.7 kmh 30.16 in1021.3 mb 0.00 in0.0 mm 0.00 in0.0 mm 0.27 in6.9 mm
01:38 PM 45.8°F7.7°C 40.3°F4.6°C 81% 10.0 mph E16.1 kmh E 11.0 mph17.7 kmh 30.16 in1021.3 mb 0.00 in0.0 mm 0.00 in0.0 mm 0.27 in6.9 mm
01:40 PM 45.8°F7.7°C 40.3°F4.6°C 81% 5.0 mph E8.0 kmh E 11.0 mph17.7 kmh 30.15 in1021.0 mb 0.00 in0.0 mm 0.00 in0.0 mm 0.27 in6.9 mm
01:41 PM 45.8°F7.7°C 40.3°F4.6°C 81% 9.0 mph E14.5 kmh E 11.0 mph17.7 kmh 30.15 in1021.0 mb 0.00 in0.0 mm 0.00 in0.0 mm 0.27 in6.9 mm
01:44 PM 45.7°F7.6°C 40.2°F4.6°C 81% 5.0 mph E8.0 kmh E 11.0 mph17.7 kmh 30.15 in1021.0 mb 0.00 in0.0 mm 0.00 in0.0 mm 0.27 in6.9 mm
01:46 PM 45.7°F7.6°C 40.5°F4.7°C 82% 11.0 mph ENE17.7 kmh ENE 11.0 mph17.7 kmh 30.15 in1021.0 mb 0.00 in0.0 mm 0.00 in0.0 mm 0.27 in6.9 mm
01:48 PM 45.7°F7.6°C 40.5°F4.7°C 82% 1.0 mph NE1.6 kmh NE 12.0 mph19.3 kmh 30.15 in1021.0 mb 0.00 in0.0 mm 0.00 in0.0 mm 0.27 in6.9 mm
01:50 PM 45.7°F7.6°C 40.5°F4.7°C 82% 4.0 mph NE6.4 kmh NE 12.0 mph19.3 kmh 30.15 in1021.0 mb 0.00 in0.0 mm 0.00 in0.0 mm 0.27 in6.9 mm
01:52 PM 45.7°F7.6°C 40.5°F4.7°C 82% 6.0 mph ESE9.7 kmh ESE 12.0 mph19.3 kmh 30.15 in1021.0 mb 0.00 in0.0 mm 0.00 in0.0 mm 0.27 in6.9 mm
01:54 PM 45.6°F7.6°C 40.4°F4.7°C 82% 7.0 mph SE11.3 kmh SE 12.0 mph19.3 kmh 30.15 in1021.0 mb 0.00 in0.0 mm 0.00 in0.0 mm 0.27 in6.9 mm
01:56 PM 45.6°F7.6°C 40.4°F4.7°C 82% 2.0 mph ENE3.2 kmh ENE 12.0 mph19.3 kmh 30.15 in1021.0 mb 0.00 in0.0 mm 0.00 in0.0 mm 0.27 in6.9 mm
01:58 PM 45.6°F7.6°C 40.7°F4.8°C 83% 2.0 mph E3.2 kmh E 12.0 mph19.3 kmh 30.15 in1021.0 mb 0.00 in0.0 mm 0.00 in0.0 mm 0.27 in6.9 mm
02:00 PM 45.6°F7.6°C 40.4°F4.7°C 82% 3.0 mph E4.8 kmh E 12.0 mph19.3 kmh 30.15 in1021.0 mb 0.00 in0.0 mm 0.00 in0.0 mm 0.27 in6.9 mm
02:02 PM 45.6°F7.6°C 40.7°F4.8°C 83% 5.0 mph ENE8.0 kmh ENE 12.0 mph19.3 kmh 30.15 in1021.0 mb 0.00 in0.0 mm 0.00 in0.0 mm 0.27 in6.9 mm
02:04 PM 45.6°F7.6°C 40.7°F4.8°C 83% 9.0 mph ENE14.5 kmh ENE 9.0 mph14.5 kmh 30.14 in1020.7 mb 0.00 in0.0 mm 0.00 in0.0 mm 0.27 in6.9 mm
02:06 PM 45.5°F7.5°C 40.7°F4.8°C 83% 8.0 mph E12.9 kmh E 9.0 mph14.5 kmh 30.15 in1021.0 mb 0.00 in0.0 mm 0.00 in0.0 mm 0.27 in6.9 mm
02:08 PM 45.5°F7.5°C 40.7°F4.8°C 83% 7.0 mph NE11.3 kmh NE 10.0 mph16.1 kmh 30.15 in1021.0 mb 0.00 in0.0 mm 0.00 in0.0 mm 0.27 in6.9 mm
02:10 PM 45.5°F7.5°C 40.7°F4.8°C 83% 8.0 mph ENE12.9 kmh ENE 10.0 mph16.1 kmh 30.15 in1021.0 mb 0.00 in0.0 mm 0.00 in0.0 mm 0.27 in6.9 mm
02:12 PM 45.5°F7.5°C 40.7°F4.8°C 83% 6.0 mph E9.7 kmh E 10.0 mph16.1 kmh 30.15 in1021.0 mb 0.00 in0.0 mm 0.00 in0.0 mm 0.27 in6.9 mm
02:14 PM 45.5°F7.5°C 40.7°F4.8°C 83% 5.0 mph ENE8.0 kmh ENE 10.0 mph16.1 kmh 30.15 in1021.0 mb 0.00 in0.0 mm 0.00 in0.0 mm 0.27 in6.9 mm
02:16 PM 45.6°F7.6°C 40.7°F4.8°C 83% 6.0 mph ENE9.7 kmh ENE 10.0 mph16.1 kmh 30.15 in1021.0 mb 0.00 in0.0 mm 0.00 in0.0 mm 0.27 in6.9 mm
02:18 PM 45.5°F7.5°C 40.7°F4.8°C 83% 4.0 mph E6.4 kmh E 10.0 mph16.1 kmh 30.14 in1020.7 mb 0.00 in0.0 mm 0.00 in0.0 mm 0.27 in6.9 mm
02:20 PM 45.5°F7.5°C 40.7°F4.8°C 83% 3.0 mph ENE4.8 kmh ENE 10.0 mph16.1 kmh 30.14 in1020.7 mb 0.00 in0.0 mm 0.00 in0.0 mm 0.27 in6.9 mm
02:22 PM 45.5°F7.5°C 40.7°F4.8°C 83% 4.0 mph ENE6.4 kmh ENE 11.0 mph17.7 kmh 30.14 in1020.7 mb 0.00 in0.0 mm 0.00 in0.0 mm 0.27 in6.9 mm
02:24 PM 45.5°F7.5°C 40.7°F4.8°C 83% 9.0 mph E14.5 kmh E 11.0 mph17.7 kmh 30.15 in1021.0 mb 0.00 in0.0 mm 0.00 in0.0 mm 0.27 in6.9 mm
02:26 PM 45.4°F7.4°C 40.6°F4.8°C 83% 5.0 mph NE8.0 kmh NE 11.0 mph17.7 kmh 30.15 in1021.0 mb 0.00 in0.0 mm 0.00 in0.0 mm 0.27 in6.9 mm
02:28 PM 45.4°F7.4°C 40.6°F4.8°C 83% 3.0 mph ENE4.8 kmh ENE 11.0 mph17.7 kmh 30.15 in1021.0 mb 0.00 in0.0 mm 0.00 in0.0 mm 0.27 in6.9 mm
02:30 PM 45.5°F7.5°C 40.7°F4.8°C 83% 5.0 mph NE8.0 kmh NE 11.0 mph17.7 kmh 30.15 in1021.0 mb 0.00 in0.0 mm 0.00 in0.0 mm 0.27 in6.9 mm
02:32 PM 45.5°F7.5°C 40.7°F4.8°C 83% 1.0 mph E1.6 kmh E 11.0 mph17.7 kmh 30.15 in1021.0 mb 0.00 in0.0 mm 0.00 in0.0 mm 0.27 in6.9 mm
02:34 PM 45.5°F7.5°C 41.0°F5.0°C 84% 4.0 mph ENE6.4 kmh ENE 7.0 mph11.3 kmh 30.15 in1021.0 mb 0.00 in0.0 mm 0.00 in0.0 mm 0.27 in6.9 mm
02:36 PM 45.5°F7.5°C 41.0°F5.0°C 84% 5.0 mph NE8.0 kmh NE 7.0 mph11.3 kmh 30.15 in1021.0 mb 0.00 in0.0 mm 0.00 in0.0 mm 0.27 in6.9 mm
02:38 PM 45.5°F7.5°C 41.0°F5.0°C 84% 7.0 mph E11.3 kmh E 9.0 mph14.5 kmh 30.16 in1021.3 mb 0.00 in0.0 mm 0.00 in0.0 mm 0.27 in6.9 mm
02:40 PM 45.5°F7.5°C 41.0°F5.0°C 84% 1.0 mph NE1.6 kmh NE 9.0 mph14.5 kmh 30.15 in1021.0 mb 0.00 in0.0 mm 0.00 in0.0 mm 0.27 in6.9 mm
02:42 PM 45.5°F7.5°C 41.0°F5.0°C 84% 4.0 mph NE6.4 kmh NE 9.0 mph14.5 kmh 30.16 in1021.3 mb 0.00 in0.0 mm 0.00 in0.0 mm 0.27 in6.9 mm
02:44 PM 45.5°F7.5°C 41.0°F5.0°C 84% 4.0 mph ENE6.4 kmh ENE 9.0 mph14.5 kmh 30.15 in1021.0 mb 0.00 in0.0 mm 0.00 in0.0 mm 0.27 in6.9 mm
02:46 PM 45.5°F7.5°C 41.0°F5.0°C 84% 4.0 mph E6.4 kmh E 9.0 mph14.5 kmh 30.15 in1021.0 mb 0.00 in0.0 mm 0.00 in0.0 mm 0.27 in6.9 mm
02:48 PM 45.5°F7.5°C 41.0°F5.0°C 84% 6.0 mph NE9.7 kmh NE 9.0 mph14.5 kmh 30.15 in1021.0 mb 0.00 in0.0 mm 0.00 in0.0 mm 0.27 in6.9 mm
02:50 PM 45.4°F7.4°C 40.9°F4.9°C 84% 6.0 mph ENE9.7 kmh ENE 9.0 mph14.5 kmh 30.16 in1021.3 mb 0.00 in0.0 mm 0.00 in0.0 mm 0.27 in6.9 mm
02:52 PM 45.4°F7.4°C 40.9°F4.9°C 84% 6.0 mph ENE9.7 kmh ENE 10.0 mph16.1 kmh 30.16 in1021.3 mb 0.00 in0.0 mm 0.00 in0.0 mm 0.27 in6.9 mm
02:54 PM 45.3°F7.4°C 40.8°F4.9°C 84% 1.0 mph E1.6 kmh E 10.0 mph16.1 kmh 30.15 in1021.0 mb 0.00 in0.0 mm 0.00 in0.0 mm 0.27 in6.9 mm
02:56 PM 45.3°F7.4°C 40.8°F4.9°C 84% 1.0 mph E1.6 kmh E 10.0 mph16.1 kmh 30.16 in1021.3 mb 0.00 in0.0 mm 0.00 in0.0 mm 0.27 in6.9 mm
02:58 PM 45.3°F7.4°C 41.1°F5.1°C 85% 4.0 mph ENE6.4 kmh ENE 10.0 mph16.1 kmh 30.16 in1021.3 mb 0.00 in0.0 mm 0.00 in0.0 mm 0.27 in6.9 mm
03:00 PM 45.3°F7.4°C 41.1°F5.1°C 85% 5.0 mph NE8.0 kmh NE 10.0 mph16.1 kmh 30.16 in1021.3 mb 0.00 in0.0 mm 0.00 in0.0 mm 0.27 in6.9 mm
03:02 PM 45.3°F7.4°C 41.1°F5.1°C 85% 4.0 mph ENE6.4 kmh ENE 10.0 mph16.1 kmh 30.16 in1021.3 mb 0.00 in0.0 mm 0.00 in0.0 mm 0.27 in6.9 mm
03:04 PM 45.3°F7.4°C 41.1°F5.1°C 85% 4.0 mph ENE6.4 kmh ENE 4.0 mph6.4 kmh 30.16 in1021.3 mb 0.00 in0.0 mm 0.00 in0.0 mm 0.27 in6.9 mm
03:06 PM 45.3°F7.4°C 41.1°F5.1°C 85% 4.0 mph NNE6.4 kmh NNE 8.0 mph12.9 kmh 30.16 in1021.3 mb 0.00 in0.0 mm 0.00 in0.0 mm 0.27 in6.9 mm
03:08 PM 45.3°F7.4°C 41.1°F5.1°C 85% 6.0 mph ENE9.7 kmh ENE 8.0 mph12.9 kmh 30.16 in1021.3 mb 0.00 in0.0 mm 0.00 in0.0 mm 0.27 in6.9 mm
03:10 PM 45.3°F7.4°C 41.1°F5.1°C 85% 5.0 mph ENE8.0 kmh ENE 8.0 mph12.9 kmh 30.16 in1021.3 mb 0.00 in0.0 mm 0.00 in0.0 mm 0.27 in6.9 mm
03:12 PM 45.2°F7.3°C 41.0°F5.0°C 85% 7.0 mph ENE11.3 kmh ENE 10.0 mph16.1 kmh 30.15 in1021.0 mb 0.00 in0.0 mm 0.00 in0.0 mm 0.27 in6.9 mm
03:14 PM 45.2°F7.3°C 41.3°F5.2°C 86% 4.0 mph NE6.4 kmh NE 10.0 mph16.1 kmh 30.15 in1021.0 mb 0.00 in0.0 mm 0.00 in0.0 mm 0.27 in6.9 mm
03:16 PM 45.2°F7.3°C 41.3°F5.2°C 86% 3.0 mph NE4.8 kmh NE 10.0 mph16.1 kmh 30.15 in1021.0 mb 0.00 in0.0 mm 0.00 in0.0 mm 0.27 in6.9 mm
03:18 PM 45.1°F7.3°C 41.2°F5.1°C 86% 5.0 mph ENE8.0 kmh ENE 10.0 mph16.1 kmh 30.15 in1021.0 mb 0.00 in0.0 mm 0.00 in0.0 mm 0.27 in6.9 mm
03:20 PM 45.1°F7.3°C 41.2°F5.1°C 86% 7.0 mph NE11.3 kmh NE 10.0 mph16.1 kmh 30.15 in1021.0 mb 0.00 in0.0 mm 0.00 in0.0 mm 0.27 in6.9 mm
03:22 PM 45.1°F7.3°C 41.2°F5.1°C 86% 3.0 mph ENE4.8 kmh ENE 10.0 mph16.1 kmh 30.16 in1021.3 mb 0.00 in0.0 mm 0.00 in0.0 mm 0.27 in6.9 mm
03:24 PM 45.1°F7.3°C 41.2°F5.1°C 86% 3.0 mph ENE4.8 kmh ENE 10.0 mph16.1 kmh 30.16 in1021.3 mb 0.00 in0.0 mm 0.00 in0.0 mm 0.27 in6.9 mm
03:26 PM 45.0°F7.2°C 41.1°F5.1°C 86% 4.0 mph E6.4 kmh E 10.0 mph16.1 kmh 30.16 in1021.3 mb 0.00 in0.0 mm 0.00 in0.0 mm 0.27 in6.9 mm
03:27 PM 45.0°F7.2°C 41.1°F5.1°C 86% 3.0 mph E4.8 kmh E 10.0 mph16.1 kmh 30.16 in1021.3 mb 0.00 in0.0 mm 0.00 in0.0 mm 0.27 in6.9 mm
03:30 PM 45.0°F7.2°C 41.1°F5.1°C 86% 4.0 mph E6.4 kmh E 10.0 mph16.1 kmh 30.16 in1021.3 mb 0.00 in0.0 mm 0.00 in0.0 mm 0.27 in6.9 mm
03:32 PM 45.0°F7.2°C 41.1°F5.1°C 86% 2.0 mph NE3.2 kmh NE 10.0 mph16.1 kmh 30.16 in1021.3 mb 0.00 in0.0 mm 0.00 in0.0 mm 0.27 in6.9 mm
03:34 PM 45.0°F7.2°C 41.4°F5.2°C 87% 3.0 mph E4.8 kmh E 6.0 mph9.7 kmh 30.16 in1021.3 mb 0.00 in0.0 mm 0.00 in0.0 mm 0.27 in6.9 mm
03:36 PM 45.1°F7.3°C 41.5°F5.3°C 87% 4.0 mph ENE6.4 kmh ENE 8.0 mph12.9 kmh 30.16 in1021.3 mb 0.00 in0.0 mm 0.00 in0.0 mm 0.27 in6.9 mm
03:38 PM 45.0°F7.2°C 41.4°F5.2°C 87% 5.0 mph E8.0 kmh E 8.0 mph12.9 kmh 30.16 in1021.3 mb 0.00 in0.0 mm 0.00 in0.0 mm 0.27 in6.9 mm
03:40 PM 45.1°F7.3°C 41.5°F5.3°C 87% 3.0 mph E4.8 kmh E 8.0 mph12.9 kmh 30.15 in1021.0 mb 0.00 in0.0 mm 0.00 in0.0 mm 0.27 in6.9 mm
03:42 PM 45.1°F7.3°C 41.5°F5.3°C 87% 10.0 mph ENE16.1 kmh ENE 10.0 mph16.1 kmh 30.16 in1021.3 mb 0.00 in0.0 mm 0.00 in0.0 mm 0.27 in6.9 mm
03:44 PM 45.0°F7.2°C 41.4°F5.2°C 87% 7.0 mph E11.3 kmh E 10.0 mph16.1 kmh 30.16 in1021.3 mb 0.00 in0.0 mm 0.00 in0.0 mm 0.27 in6.9 mm
03:46 PM 45.0°F7.2°C 41.4°F5.2°C 87% 2.0 mph ENE3.2 kmh ENE 10.0 mph16.1 kmh 30.16 in1021.3 mb 0.00 in0.0 mm 0.00 in0.0 mm 0.27 in6.9 mm
03:48 PM 45.0°F7.2°C 41.4°F5.2°C 87% 2.0 mph ENE3.2 kmh ENE 10.0 mph16.1 kmh 30.16 in1021.3 mb 0.00 in0.0 mm 0.00 in0.0 mm 0.27 in6.9 mm
03:50 PM 45.0°F7.2°C 41.4°F5.2°C 87% 5.0 mph NE8.0 kmh NE 10.0 mph16.1 kmh 30.16 in1021.3 mb 0.00 in0.0 mm 0.00 in0.0 mm 0.27 in6.9 mm
03:52 PM 45.0°F7.2°C 41.4°F5.2°C 87% 4.0 mph N6.4 kmh N 10.0 mph16.1 kmh 30.16 in1021.3 mb 0.00 in0.0 mm 0.00 in0.0 mm 0.27 in6.9 mm
03:54 PM 44.9°F7.2°C 41.3°F5.2°C 87% 4.0 mph ENE6.4 kmh ENE 10.0 mph16.1 kmh 30.16 in1021.3 mb 0.00 in0.0 mm 0.00 in0.0 mm 0.27 in6.9 mm
03:56 PM 45.0°F7.2°C 41.4°F5.2°C 87% 6.0 mph NE9.7 kmh NE 10.0 mph16.1 kmh 30.16 in1021.3 mb 0.00 in0.0 mm 0.00 in0.0 mm 0.27 in6.9 mm
03:58 PM 44.9°F7.2°C 41.3°F5.2°C 87% 5.0 mph NE8.0 kmh NE 10.0 mph16.1 kmh 30.16 in1021.3 mb 0.00 in0.0 mm 0.00 in0.0 mm 0.27 in6.9 mm
04:00 PM 44.9°F7.2°C 41.3°F5.2°C 87% 9.0 mph ENE14.5 kmh ENE 10.0 mph16.1 kmh 30.17 in1021.7 mb 0.00 in0.0 mm 0.00 in0.0 mm 0.27 in6.9 mm
04:02 PM 44.8°F7.1°C 41.2°F5.1°C 87% 5.0 mph E8.0 kmh E 10.0 mph16.1 kmh 30.17 in1021.7 mb 0.00 in0.0 mm 0.00 in0.0 mm 0.27 in6.9 mm
04:03 PM 44.8°F7.1°C 41.2°F5.1°C 87% 5.0 mph E8.0 kmh E 8.0 mph12.9 kmh 30.17 in1021.7 mb 0.00 in0.0 mm 0.00 in0.0 mm 0.27 in6.9 mm
04:06 PM 44.8°F7.1°C 41.2°F5.1°C 87% 7.0 mph E11.3 kmh E 8.0 mph12.9 kmh 30.16 in1021.3 mb 0.00 in0.0 mm 0.00 in0.0 mm 0.27 in6.9 mm
04:08 PM 44.8°F7.1°C 41.2°F5.1°C 87% 4.0 mph ENE6.4 kmh ENE 9.0 mph14.5 kmh 30.16 in1021.3 mb 0.01 in0.3 mm 0.30 in7.6 mm 0.28 in7.1 mm
04:10 PM 44.9°F7.2°C 41.3°F5.2°C 87% 5.0 mph ENE8.0 kmh ENE 9.0 mph14.5 kmh 30.16 in1021.3 mb 0.01 in0.3 mm 0.00 in0.0 mm 0.28 in7.1 mm
04:12 PM 44.8°F7.1°C 41.2°F5.1°C 87% 4.0 mph NE6.4 kmh NE 9.0 mph14.5 kmh 30.17 in1021.7 mb 0.01 in0.3 mm 0.00 in0.0 mm 0.28 in7.1 mm
04:14 PM 44.8°F7.1°C 41.2°F5.1°C 87% 4.0 mph NE6.4 kmh NE 9.0 mph14.5 kmh 30.17 in1021.7 mb 0.01 in0.3 mm 0.00 in0.0 mm 0.28 in7.1 mm
04:16 PM 44.8°F7.1°C 41.2°F5.1°C 87% 6.0 mph ENE9.7 kmh ENE 9.0 mph14.5 kmh 30.17 in1021.7 mb 0.01 in0.3 mm 0.00 in0.0 mm 0.28 in7.1 mm
04:18 PM 44.8°F7.1°C 41.2°F5.1°C 87% 4.0 mph NE6.4 kmh NE 9.0 mph14.5 kmh 30.17 in1021.7 mb 0.01 in0.3 mm 0.00 in0.0 mm 0.28 in7.1 mm
04:20 PM 44.8°F7.1°C 41.2°F5.1°C 87% 5.0 mph NE8.0 kmh NE 9.0 mph14.5 kmh 30.17 in1021.7 mb 0.01 in0.3 mm 0.00 in0.0 mm 0.28 in7.1 mm
04:22 PM 44.8°F7.1°C 41.5°F5.3°C 88% 2.0 mph E3.2 kmh E 9.0 mph14.5 kmh 30.17 in1021.7 mb 0.01 in0.3 mm 0.00 in0.0 mm 0.28 in7.1 mm
04:24 PM 44.8°F7.1°C 41.5°F5.3°C 88% 6.0 mph NE9.7 kmh NE 9.0 mph14.5 kmh 30.17 in1021.7 mb 0.01 in0.3 mm 0.00 in0.0 mm 0.28 in7.1 mm
04:26 PM 44.8°F7.1°C 41.5°F5.3°C 88% 3.0 mph ENE4.8 kmh ENE 9.0 mph14.5 kmh 30.17 in1021.7 mb 0.01 in0.3 mm 0.00 in0.0 mm 0.28 in7.1 mm
04:28 PM 44.8°F7.1°C 41.5°F5.3°C 88% 3.0 mph NE4.8 kmh NE 9.0 mph14.5 kmh 30.17 in1021.7 mb 0.01 in0.3 mm 0.00 in0.0 mm 0.28 in7.1 mm
04:30 PM 44.8°F7.1°C 41.5°F5.3°C 88% 3.0 mph ENE4.8 kmh ENE 9.0 mph14.5 kmh 30.17 in1021.7 mb 0.01 in0.3 mm 0.00 in0.0 mm 0.28 in7.1 mm
04:32 PM 44.8°F7.1°C 41.5°F5.3°C 88% 2.0 mph ENE3.2 kmh ENE 9.0 mph14.5 kmh 30.17 in1021.7 mb 0.01 in0.3 mm 0.00 in0.0 mm 0.28 in7.1 mm
04:34 PM 44.9°F7.2°C 41.6°F5.3°C 88% 4.0 mph ENE6.4 kmh ENE 7.0 mph11.3 kmh 30.17 in1021.7 mb 0.01 in0.3 mm 0.00 in0.0 mm 0.28 in7.1 mm
04:36 PM 44.8°F7.1°C 41.5°F5.3°C 88% 7.0 mph NE11.3 kmh NE 12.0 mph19.3 kmh 30.17 in1021.7 mb 0.01 in0.3 mm 0.00 in0.0 mm 0.28 in7.1 mm
04:38 PM 44.7°F7.1°C 41.4°F5.2°C 88% 4.0 mph NE6.4 kmh NE 12.0 mph19.3 kmh 30.17 in1021.7 mb 0.01 in0.3 mm 0.00 in0.0 mm 0.28 in7.1 mm
04:40 PM 44.8°F7.1°C 41.5°F5.3°C 88% 6.0 mph NE9.7 kmh NE 12.0 mph19.3 kmh 30.18 in1022.0 mb 0.01 in0.3 mm 0.00 in0.0 mm 0.28 in7.1 mm
04:42 PM 44.7°F7.1°C 41.4°F5.2°C 88% 4.0 mph NE6.4 kmh NE 12.0 mph19.3 kmh 30.18 in1022.0 mb 0.01 in0.3 mm 0.00 in0.0 mm 0.28 in7.1 mm
04:44 PM 44.7°F7.1°C 41.4°F5.2°C 88% 3.0 mph E4.8 kmh E 12.0 mph19.3 kmh 30.18 in1022.0 mb 0.01 in0.3 mm 0.00 in0.0 mm 0.28 in7.1 mm
04:46 PM 44.6°F7.0°C 41.3°F5.2°C 88% 4.0 mph NE6.4 kmh NE 12.0 mph19.3 kmh 30.18 in1022.0 mb 0.01 in0.3 mm 0.00 in0.0 mm 0.28 in7.1 mm
04:48 PM 44.6°F7.0°C 41.3°F5.2°C 88% 6.0 mph ENE9.7 kmh ENE 12.0 mph19.3 kmh 30.18 in1022.0 mb 0.01 in0.3 mm 0.00 in0.0 mm 0.28 in7.1 mm
04:50 PM 44.6°F7.0°C 41.3°F5.2°C 88% 3.0 mph ENE4.8 kmh ENE 12.0 mph19.3 kmh 30.17 in1021.7 mb 0.01 in0.3 mm 0.00 in0.0 mm 0.28 in7.1 mm
04:52 PM 44.7°F7.1°C 41.4°F5.2°C 88% 4.0 mph NE6.4 kmh NE 12.0 mph19.3 kmh 30.18 in1022.0 mb 0.01 in0.3 mm 0.00 in0.0 mm 0.28 in7.1 mm
04:54 PM 44.7°F7.1°C 41.4°F5.2°C 88% 5.0 mph NE8.0 kmh NE 12.0 mph19.3 kmh 30.18 in1022.0 mb 0.01 in0.3 mm 0.00 in0.0 mm 0.28 in7.1 mm
04:56 PM 44.7°F7.1°C 41.4°F5.2°C 88% 4.0 mph NE6.4 kmh NE 12.0 mph19.3 kmh 30.18 in1022.0 mb 0.01 in0.3 mm 0.00 in0.0 mm 0.28 in7.1 mm
04:58 PM 44.7°F7.1°C 41.4°F5.2°C 88% 2.0 mph E3.2 kmh E 12.0 mph19.3 kmh 30.18 in1022.0 mb 0.01 in0.3 mm 0.00 in0.0 mm 0.28 in7.1 mm
05:00 PM 44.7°F7.1°C 41.4°F5.2°C 88% 6.0 mph ENE9.7 kmh ENE 12.0 mph19.3 kmh 30.18 in1022.0 mb 0.01 in0.3 mm 0.00 in0.0 mm 0.28 in7.1 mm
05:02 PM 44.7°F7.1°C 41.4°F5.2°C 88% 3.0 mph ENE4.8 kmh ENE 12.0 mph19.3 kmh 30.17 in1021.7 mb 0.01 in0.3 mm 0.00 in0.0 mm 0.28 in7.1 mm
05:04 PM 44.7°F7.1°C 41.4°F5.2°C 88% 5.0 mph NE8.0 kmh NE 7.0 mph11.3 kmh 30.17 in1021.7 mb 0.01 in0.3 mm 0.00 in0.0 mm 0.28 in7.1 mm
05:06 PM 44.6°F7.0°C 41.3°F5.2°C 88% 7.0 mph E11.3 kmh E 12.0 mph19.3 kmh 30.17 in1021.7 mb 0.01 in0.3 mm 0.00 in0.0 mm 0.28 in7.1 mm
05:08 PM 44.6°F7.0°C 41.3°F5.2°C 88% 3.0 mph NE4.8 kmh NE 12.0 mph19.3 kmh 30.17 in1021.7 mb 0.01 in0.3 mm 0.00 in0.0 mm 0.28 in7.1 mm
05:10 PM 44.6°F7.0°C 41.3°F5.2°C 88% 7.0 mph ENE11.3 kmh ENE 12.0 mph19.3 kmh 30.17 in1021.7 mb 0.01 in0.3 mm 0.00 in0.0 mm 0.28 in7.1 mm
05:12 PM 44.6°F7.0°C 41.3°F5.2°C 88% 10.0 mph ENE16.1 kmh ENE 12.0 mph19.3 kmh 30.17 in1021.7 mb 0.01 in0.3 mm 0.00 in0.0 mm 0.28 in7.1 mm
05:14 PM 44.5°F6.9°C 41.2°F5.1°C 88% 9.0 mph ENE14.5 kmh ENE 12.0 mph19.3 kmh 30.17 in1021.7 mb 0.01 in0.3 mm 0.00 in0.0 mm 0.28 in7.1 mm
05:16 PM 44.5°F6.9°C 41.2°F5.1°C 88% 6.0 mph NE9.7 kmh NE 12.0 mph19.3 kmh 30.17 in1021.7 mb 0.01 in0.3 mm 0.00 in0.0 mm 0.28 in7.1 mm
05:18 PM 44.4°F6.9°C 41.1°F5.1°C 88% 3.0 mph ENE4.8 kmh ENE 12.0 mph19.3 kmh 30.17 in1021.7 mb 0.01 in0.3 mm 0.00 in0.0 mm 0.28 in7.1 mm
05:20 PM 44.5°F6.9°C 41.2°F5.1°C 88% 6.0 mph ENE9.7 kmh ENE 12.0 mph19.3 kmh 30.17 in1021.7 mb 0.01 in0.3 mm 0.00 in0.0 mm 0.28 in7.1 mm
05:22 PM 44.4°F6.9°C 41.1°F5.1°C 88% 6.0 mph NE9.7 kmh NE 12.0 mph19.3 kmh 30.17 in1021.7 mb 0.01 in0.3 mm 0.00 in0.0 mm 0.28 in7.1 mm
05:24 PM 44.5°F6.9°C 41.2°F5.1°C 88% 7.0 mph E11.3 kmh E 12.0 mph19.3 kmh 30.17 in1021.7 mb 0.01 in0.3 mm 0.00 in0.0 mm 0.28 in7.1 mm
05:26 PM 44.5°F6.9°C 41.2°F5.1°C 88% 5.0 mph NE8.0 kmh NE 12.0 mph19.3 kmh 30.16 in1021.3 mb 0.01 in0.3 mm 0.00 in0.0 mm 0.28 in7.1 mm
05:28 PM 44.4°F6.9°C 41.1°F5.1°C 88% 3.0 mph ENE4.8 kmh ENE 12.0 mph19.3 kmh 30.17 in1021.7 mb 0.01 in0.3 mm 0.00 in0.0 mm 0.28 in7.1 mm
05:30 PM 44.4°F6.9°C 41.1°F5.1°C 88% 5.0 mph ENE8.0 kmh ENE 12.0 mph19.3 kmh 30.17 in1021.7 mb 0.01 in0.3 mm 0.00 in0.0 mm 0.28 in7.1 mm
05:32 PM 44.5°F6.9°C 41.2°F5.1°C 88% 4.0 mph ENE6.4 kmh ENE 12.0 mph19.3 kmh 30.16 in1021.3 mb 0.01 in0.3 mm 0.00 in0.0 mm 0.28 in7.1 mm
05:34 PM 44.4°F6.9°C 41.1°F5.1°C 88% 4.0 mph NE6.4 kmh NE 11.0 mph17.7 kmh 30.17 in1021.7 mb 0.00 in0.0 mm 0.00 in0.0 mm 0.28 in7.1 mm
05:36 PM 44.4°F6.9°C 41.1°F5.1°C 88% 7.0 mph E11.3 kmh E 12.0 mph19.3 kmh 30.17 in1021.7 mb 0.00 in0.0 mm 0.00 in0.0 mm 0.28 in7.1 mm
05:38 PM 44.4°F6.9°C 41.1°F5.1°C 88% 8.0 mph ENE12.9 kmh ENE 12.0 mph19.3 kmh 30.17 in1021.7 mb 0.00 in0.0 mm 0.00 in0.0 mm 0.28 in7.1 mm
05:40 PM 44.4°F6.9°C 41.1°F5.1°C 88% 8.0 mph ENE12.9 kmh ENE 12.0 mph19.3 kmh 30.17 in1021.7 mb 0.00 in0.0 mm 0.00 in0.0 mm 0.28 in7.1 mm
05:42 PM 44.4°F6.9°C 41.1°F5.1°C 88% 5.0 mph E8.0 kmh E 12.0 mph19.3 kmh 30.16 in1021.3 mb 0.00 in0.0 mm 0.00 in0.0 mm 0.28 in7.1 mm
05:43 PM 44.5°F6.9°C 41.2°F5.1°C 88% 3.0 mph NE4.8 kmh NE 12.0 mph19.3 kmh 30.17 in1021.7 mb 0.00 in0.0 mm 0.00 in0.0 mm 0.28 in7.1 mm
05:46 PM 44.5°F6.9°C 41.2°F5.1°C 88% 3.0 mph E4.8 kmh E 12.0 mph19.3 kmh 30.17 in1021.7 mb 0.00 in0.0 mm 0.00 in0.0 mm 0.28 in7.1 mm
05:48 PM 44.5°F6.9°C 41.2°F5.1°C 88% 4.0 mph ESE6.4 kmh ESE 12.0 mph19.3 kmh 30.17 in1021.7 mb 0.00 in0.0 mm 0.00 in0.0 mm 0.28 in7.1 mm
05:50 PM 44.4°F6.9°C 41.1°F5.1°C 88% 6.0 mph ENE9.7 kmh ENE 13.0 mph20.9 kmh 30.16 in1021.3 mb 0.00 in0.0 mm 0.00 in0.0 mm 0.28 in7.1 mm
05:52 PM 44.4°F6.9°C 41.1°F5.1°C 88% 8.0 mph E12.9 kmh E 13.0 mph20.9 kmh 30.16 in1021.3 mb 0.00 in0.0 mm 0.00 in0.0 mm 0.28 in7.1 mm
05:54 PM 44.5°F6.9°C 41.2°F5.1°C 88% 4.0 mph E6.4 kmh E 13.0 mph20.9 kmh 30.16 in1021.3 mb 0.00 in0.0 mm 0.00 in0.0 mm 0.28 in7.1 mm
05:56 PM 44.5°F6.9°C 41.2°F5.1°C 88% 4.0 mph ENE6.4 kmh ENE 13.0 mph20.9 kmh 30.17 in1021.7 mb 0.00 in0.0 mm 0.00 in0.0 mm 0.28 in7.1 mm
05:58 PM 44.5°F6.9°C 41.2°F5.1°C 88% 4.0 mph ENE6.4 kmh ENE 13.0 mph20.9 kmh 30.16 in1021.3 mb 0.00 in0.0 mm 0.00 in0.0 mm 0.28 in7.1 mm
06:00 PM 44.5°F6.9°C 41.2°F5.1°C 88% 4.0 mph E6.4 kmh E 13.0 mph20.9 kmh 30.17 in1021.7 mb 0.00 in0.0 mm 0.00 in0.0 mm 0.28 in7.1 mm
06:02 PM 44.5°F6.9°C 41.2°F5.1°C 88% 5.0 mph ENE8.0 kmh ENE 13.0 mph20.9 kmh 30.16 in1021.3 mb 0.00 in0.0 mm 0.00 in0.0 mm 0.28 in7.1 mm
06:04 PM 44.5°F6.9°C 41.2°F5.1°C 88% 9.0 mph E14.5 kmh E 11.0 mph17.7 kmh 30.16 in1021.3 mb 0.00 in0.0 mm 0.00 in0.0 mm 0.28 in7.1 mm
06:06 PM 44.4°F6.9°C 41.1°F5.1°C 88% 4.0 mph E6.4 kmh E 11.0 mph17.7 kmh 30.16 in1021.3 mb 0.00 in0.0 mm 0.00 in0.0 mm 0.28 in7.1 mm
06:08 PM 44.5°F6.9°C 41.2°F5.1°C 88% 8.0 mph ENE12.9 kmh ENE 11.0 mph17.7 kmh 30.16 in1021.3 mb 0.00 in0.0 mm 0.00 in0.0 mm 0.28 in7.1 mm
06:10 PM 44.5°F6.9°C 41.2°F5.1°C 88% 7.0 mph NE11.3 kmh NE 11.0 mph17.7 kmh 30.16 in1021.3 mb 0.00 in0.0 mm 0.00 in0.0 mm 0.28 in7.1 mm
06:12 PM 44.4°F6.9°C 41.1°F5.1°C 88% 6.0 mph E9.7 kmh E 11.0 mph17.7 kmh 30.17 in1021.7 mb 0.00 in0.0 mm 0.00 in0.0 mm 0.28 in7.1 mm
06:14 PM 44.5°F6.9°C 41.2°F5.1°C 88% 6.0 mph ENE9.7 kmh ENE 11.0 mph17.7 kmh 30.17 in1021.7 mb 0.00 in0.0 mm 0.00 in0.0 mm 0.28 in7.1 mm
06:16 PM 44.4°F6.9°C 41.1°F5.1°C 88% 10.0 mph ENE16.1 kmh ENE 11.0 mph17.7 kmh 30.17 in1021.7 mb 0.00 in0.0 mm 0.00 in0.0 mm 0.28 in7.1 mm
06:18 PM 44.5°F6.9°C 41.2°F5.1°C 88% 6.0 mph ENE9.7 kmh ENE 13.0 mph20.9 kmh 30.17 in1021.7 mb 0.00 in0.0 mm 0.00 in0.0 mm 0.28 in7.1 mm
06:20 PM 44.5°F6.9°C 41.2°F5.1°C 88% 11.0 mph NE17.7 kmh NE 13.0 mph20.9 kmh 30.17 in1021.7 mb 0.00 in0.0 mm 0.00 in0.0 mm 0.28 in7.1 mm
06:22 PM 44.4°F6.9°C 41.4°F5.2°C 89% 8.0 mph E12.9 kmh E 13.0 mph20.9 kmh 30.17 in1021.7 mb 0.00 in0.0 mm 0.00 in0.0 mm 0.28 in7.1 mm
06:24 PM 44.5°F6.9°C 41.5°F5.3°C 89% 3.0 mph NE4.8 kmh NE 13.0 mph20.9 kmh 30.18 in1022.0 mb 0.00 in0.0 mm 0.00 in0.0 mm 0.28 in7.1 mm
06:26 PM 44.5°F6.9°C 41.5°F5.3°C 89% 5.0 mph NE8.0 kmh NE 13.0 mph20.9 kmh 30.17 in1021.7 mb 0.00 in0.0 mm 0.00 in0.0 mm 0.28 in7.1 mm
06:28 PM 44.5°F6.9°C 41.5°F5.3°C 89% 5.0 mph NE8.0 kmh NE 13.0 mph20.9 kmh 30.17 in1021.7 mb 0.00 in0.0 mm 0.00 in0.0 mm 0.28 in7.1 mm
06:30 PM 44.4°F6.9°C 41.1°F5.1°C 88% 6.0 mph ENE9.7 kmh ENE 13.0 mph20.9 kmh 30.17 in1021.7 mb 0.00 in0.0 mm 0.00 in0.0 mm 0.28 in7.1 mm
06:32 PM 44.4°F6.9°C 41.4°F5.2°C 89% 9.0 mph ENE14.5 kmh ENE 13.0 mph20.9 kmh 30.17 in1021.7 mb 0.00 in0.0 mm 0.00 in0.0 mm 0.28 in7.1 mm
06:34 PM 44.4°F6.9°C 41.4°F5.2°C 89% 6.0 mph ENE9.7 kmh ENE 9.0 mph14.5 kmh 30.18 in1022.0 mb 0.00 in0.0 mm 0.00 in0.0 mm 0.28 in7.1 mm
06:36 PM 44.4°F6.9°C 41.1°F5.1°C 88% 4.0 mph ENE6.4 kmh ENE 9.0 mph14.5 kmh 30.18 in1022.0 mb 0.00 in0.0 mm 0.00 in0.0 mm 0.28 in7.1 mm
06:38 PM 44.4°F6.9°C 41.1°F5.1°C 88% 6.0 mph ENE9.7 kmh ENE 10.0 mph16.1 kmh 30.17 in1021.7 mb 0.00 in0.0 mm 0.00 in0.0 mm 0.28 in7.1 mm
06:40 PM 44.4°F6.9°C 41.4°F5.2°C 89% 10.0 mph NE16.1 kmh NE 10.0 mph16.1 kmh 30.17 in1021.7 mb 0.00 in0.0 mm 0.00 in0.0 mm 0.28 in7.1 mm
06:42 PM 44.4°F6.9°C 41.4°F5.2°C 89% 8.0 mph ENE12.9 kmh ENE 10.0 mph16.1 kmh 30.17 in1021.7 mb 0.00 in0.0 mm 0.00 in0.0 mm 0.28 in7.1 mm
06:44 PM 44.4°F6.9°C 41.4°F5.2°C 89% 4.0 mph ENE6.4 kmh ENE 13.0 mph20.9 kmh 30.17 in1021.7 mb 0.00 in0.0 mm 0.00 in0.0 mm 0.28 in7.1 mm
06:46 PM 44.4°F6.9°C 41.4°F5.2°C 89% 5.0 mph E8.0 kmh E 13.0 mph20.9 kmh 30.17 in1021.7 mb 0.00 in0.0 mm 0.00 in0.0 mm 0.28 in7.1 mm
06:48 PM 44.4°F6.9°C 41.4°F5.2°C 89% 3.0 mph NE4.8 kmh NE 13.0 mph20.9 kmh 30.17 in1021.7 mb 0.00 in0.0 mm 0.00 in0.0 mm 0.28 in7.1 mm
06:50 PM 44.4°F6.9°C 41.4°F5.2°C 89% 2.0 mph ENE3.2 kmh ENE 13.0 mph20.9 kmh 30.17 in1021.7 mb 0.00 in0.0 mm 0.00 in0.0 mm 0.28 in7.1 mm
06:52 PM 44.4°F6.9°C 41.4°F5.2°C 89% 6.0 mph NE9.7 kmh NE 13.0 mph20.9 kmh 30.17 in1021.7 mb 0.00 in0.0 mm 0.00 in0.0 mm 0.28 in7.1 mm
06:54 PM 44.4°F6.9°C 41.4°F5.2°C 89% 5.0 mph NE8.0 kmh NE 13.0 mph20.9 kmh 30.17 in1021.7 mb 0.00 in0.0 mm 0.00 in0.0 mm 0.28 in7.1 mm
06:56 PM 44.4°F6.9°C 41.4°F5.2°C 89% 10.0 mph ENE16.1 kmh ENE 13.0 mph20.9 kmh 30.17 in1021.7 mb 0.00 in0.0 mm 0.00 in0.0 mm 0.28 in7.1 mm
06:58 PM 44.4°F6.9°C 41.4°F5.2°C 89% 5.0 mph ENE8.0 kmh ENE 13.0 mph20.9 kmh 30.18 in1022.0 mb 0.00 in0.0 mm 0.00 in0.0 mm 0.28 in7.1 mm
07:00 PM 44.4°F6.9°C 41.4°F5.2°C 89% 4.0 mph ENE6.4 kmh ENE 13.0 mph20.9 kmh 30.18 in1022.0 mb 0.00 in0.0 mm 0.00 in0.0 mm 0.28 in7.1 mm
07:02 PM 44.4°F6.9°C 41.4°F5.2°C 89% 4.0 mph ENE6.4 kmh ENE 13.0 mph20.9 kmh 30.18 in1022.0 mb 0.00 in0.0 mm 0.00 in0.0 mm 0.28 in7.1 mm
07:04 PM 44.4°F6.9°C 41.4°F5.2°C 89% 3.0 mph ENE4.8 kmh ENE 4.0 mph6.4 kmh 30.18 in1022.0 mb 0.00 in0.0 mm 0.00 in0.0 mm 0.28 in7.1 mm
07:06 PM 44.5°F6.9°C 41.5°F5.3°C 89% 2.0 mph ENE3.2 kmh ENE 4.0 mph6.4 kmh 30.19 in1022.4 mb 0.00 in0.0 mm 0.00 in0.0 mm 0.28 in7.1 mm
07:08 PM 44.5°F6.9°C 41.5°F5.3°C 89% 5.0 mph NE8.0 kmh NE 6.0 mph9.7 kmh 30.19 in1022.4 mb 0.00 in0.0 mm 0.00 in0.0 mm 0.28 in7.1 mm
07:10 PM 44.5°F6.9°C 41.5°F5.3°C 89% 6.0 mph ENE9.7 kmh ENE 8.0 mph12.9 kmh 30.19 in1022.4 mb 0.00 in0.0 mm 0.00 in0.0 mm 0.28 in7.1 mm
07:12 PM 44.4°F6.9°C 41.4°F5.2°C 89% 4.0 mph E6.4 kmh E 8.0 mph12.9 kmh 30.19 in1022.4 mb 0.00 in0.0 mm 0.00 in0.0 mm 0.28 in7.1 mm
07:14 PM 44.4°F6.9°C 41.4°F5.2°C 89% 6.0 mph E9.7 kmh E 8.0 mph12.9 kmh 30.19 in1022.4 mb 0.00 in0.0 mm 0.00 in0.0 mm 0.28 in7.1 mm
07:16 PM 44.5°F6.9°C 41.5°F5.3°C 89% 9.0 mph ENE14.5 kmh ENE 11.0 mph17.7 kmh 30.18 in1022.0 mb 0.00 in0.0 mm 0.00 in0.0 mm 0.28 in7.1 mm
07:18 PM 44.5°F6.9°C 41.5°F5.3°C 89% 5.0 mph E8.0 kmh E 11.0 mph17.7 kmh 30.19 in1022.4 mb 0.00 in0.0 mm 0.00 in0.0 mm 0.28 in7.1 mm
07:20 PM 44.5°F6.9°C 41.5°F5.3°C 89% 5.0 mph NE8.0 kmh NE 11.0 mph17.7 kmh 30.19 in1022.4 mb 0.00 in0.0 mm 0.00 in0.0 mm 0.28 in7.1 mm
07:22 PM 44.4°F6.9°C 41.4°F5.2°C 89% 2.0 mph NE3.2 kmh NE 11.0 mph17.7 kmh 30.19 in1022.4 mb 0.00 in0.0 mm 0.00 in0.0 mm 0.28 in7.1 mm
07:24 PM 44.4°F6.9°C 41.4°F5.2°C 89% 2.0 mph E3.2 kmh E 11.0 mph17.7 kmh 30.19 in1022.4 mb 0.00 in0.0 mm 0.00 in0.0 mm 0.28 in7.1 mm
07:26 PM 44.4°F6.9°C 41.4°F5.2°C 89% 2.0 mph E3.2 kmh E 11.0 mph17.7 kmh 30.19 in1022.4 mb 0.00 in0.0 mm 0.00 in0.0 mm 0.28 in7.1 mm
07:28 PM 44.4°F6.9°C 41.4°F5.2°C 89% 3.0 mph E4.8 kmh E 11.0 mph17.7 kmh 30.19 in1022.4 mb 0.00 in0.0 mm 0.00 in0.0 mm 0.28 in7.1 mm
07:30 PM 44.5°F6.9°C 41.5°F5.3°C 89% 3.0 mph NE4.8 kmh NE 11.0 mph17.7 kmh 30.19 in1022.4 mb 0.00 in0.0 mm 0.00 in0.0 mm 0.28 in7.1 mm
07:32 PM 44.4°F6.9°C 41.4°F5.2°C 89% 4.0 mph E6.4 kmh E 11.0 mph17.7 kmh 30.18 in1022.0 mb 0.00 in0.0 mm 0.00 in0.0 mm 0.28 in7.1 mm
07:34 PM 44.5°F6.9°C 41.5°F5.3°C 89% 2.0 mph ENE3.2 kmh ENE 4.0 mph6.4 kmh 30.18 in1022.0 mb 0.00 in0.0 mm 0.00 in0.0 mm 0.28 in7.1 mm
07:36 PM 44.5°F6.9°C 41.5°F5.3°C 89% 5.0 mph NE8.0 kmh NE 5.0 mph8.0 kmh 30.19 in1022.4 mb 0.00 in0.0 mm 0.00 in0.0 mm 0.28 in7.1 mm
07:38 PM 44.5°F6.9°C 41.5°F5.3°C 89% 4.0 mph ENE6.4 kmh ENE 5.0 mph8.0 kmh 30.19 in1022.4 mb 0.00 in0.0 mm 0.00 in0.0 mm 0.28 in7.1 mm
07:40 PM 44.5°F6.9°C 41.5°F5.3°C 89% 5.0 mph ENE8.0 kmh ENE 6.0 mph9.7 kmh 30.19 in1022.4 mb 0.00 in0.0 mm 0.00 in0.0 mm 0.28 in7.1 mm
07:42 PM 44.5°F6.9°C 41.5°F5.3°C 89% 4.0 mph ENE6.4 kmh ENE 6.0 mph9.7 kmh 30.19 in1022.4 mb 0.00 in0.0 mm 0.00 in0.0 mm 0.28 in7.1 mm
07:44 PM 44.5°F6.9°C 41.5°F5.3°C 89% 4.0 mph ENE6.4 kmh ENE 6.0 mph9.7 kmh 30.19 in1022.4 mb 0.00 in0.0 mm 0.00 in0.0 mm 0.28 in7.1 mm
07:45 PM 44.5°F6.9°C 41.5°F5.3°C 89% 4.0 mph ENE6.4 kmh ENE 8.0 mph12.9 kmh 30.19 in1022.4 mb 0.00 in0.0 mm 0.00 in0.0 mm 0.28 in7.1 mm
07:48 PM 44.5°F6.9°C 41.5°F5.3°C 89% 5.0 mph ENE8.0 kmh ENE 8.0 mph12.9 kmh 30.18 in1022.0 mb 0.00 in0.0 mm 0.00 in0.0 mm 0.28 in7.1 mm
07:50 PM 44.5°F6.9°C 41.5°F5.3°C 89% 3.0 mph ENE4.8 kmh ENE 8.0 mph12.9 kmh 30.19 in1022.4 mb 0.00 in0.0 mm 0.00 in0.0 mm 0.28 in7.1 mm
07:52 PM 44.5°F6.9°C 41.5°F5.3°C 89% 2.0 mph E3.2 kmh E 8.0 mph12.9 kmh 30.19 in1022.4 mb 0.00 in0.0 mm 0.00 in0.0 mm 0.28 in7.1 mm
07:54 PM 44.6°F7.0°C 41.6°F5.3°C 89% 4.0 mph ENE6.4 kmh ENE 8.0 mph12.9 kmh 30.19 in1022.4 mb 0.00 in0.0 mm 0.00 in0.0 mm 0.28 in7.1 mm
07:56 PM 44.5°F6.9°C 41.5°F5.3°C 89% 2.0 mph ENE3.2 kmh ENE 8.0 mph12.9 kmh 30.19 in1022.4 mb 0.00 in0.0 mm 0.00 in0.0 mm 0.28 in7.1 mm
07:58 PM 44.6°F7.0°C 41.6°F5.3°C 89% 4.0 mph ENE6.4 kmh ENE 8.0 mph12.9 kmh 30.18 in1022.0 mb 0.00 in0.0 mm 0.00 in0.0 mm 0.28 in7.1 mm
08:00 PM 44.5°F6.9°C 41.5°F5.3°C 89% 4.0 mph NE6.4 kmh NE 8.0 mph12.9 kmh 30.18 in1022.0 mb 0.00 in0.0 mm 0.00 in0.0 mm 0.28 in7.1 mm
08:02 PM 44.6°F7.0°C 41.6°F5.3°C 89% 2.0 mph ENE3.2 kmh ENE 8.0 mph12.9 kmh 30.18 in1022.0 mb 0.00 in0.0 mm 0.00 in0.0 mm 0.28 in7.1 mm
08:04 PM 44.6°F7.0°C 41.6°F5.3°C 89% 4.0 mph NE6.4 kmh NE 5.0 mph8.0 kmh 30.18 in1022.0 mb 0.00 in0.0 mm 0.00 in0.0 mm 0.28 in7.1 mm
08:06 PM 44.6°F7.0°C 41.6°F5.3°C 89% 2.0 mph ENE3.2 kmh ENE 7.0 mph11.3 kmh 30.18 in1022.0 mb 0.00 in0.0 mm 0.00 in0.0 mm 0.28 in7.1 mm
08:08 PM 44.6°F7.0°C 41.6°F5.3°C 89% 3.0 mph ENE4.8 kmh ENE 9.0 mph14.5 kmh 30.18 in1022.0 mb 0.01 in0.3 mm 0.30 in7.6 mm 0.29 in7.4 mm
08:10 PM 44.6°F7.0°C 41.6°F5.3°C 89% 6.0 mph ESE9.7 kmh ESE 9.0 mph14.5 kmh 30.18 in1022.0 mb 0.01 in0.3 mm 0.00 in0.0 mm 0.29 in7.4 mm
08:12 PM 44.6°F7.0°C 41.6°F5.3°C 89% 4.0 mph NE6.4 kmh NE 9.0 mph14.5 kmh 30.18 in1022.0 mb 0.01 in0.3 mm 0.00 in0.0 mm 0.29 in7.4 mm
08:14 PM 44.6°F7.0°C 41.6°F5.3°C 89% 2.0 mph E3.2 kmh E 9.0 mph14.5 kmh 30.18 in1022.0 mb 0.01 in0.3 mm 0.00 in0.0 mm 0.29 in7.4 mm
08:16 PM 44.6°F7.0°C 41.6°F5.3°C 89% 4.0 mph ENE6.4 kmh ENE 9.0 mph14.5 kmh 30.18 in1022.0 mb 0.01 in0.3 mm 0.00 in0.0 mm 0.29 in7.4 mm
08:18 PM 44.5°F6.9°C 41.5°F5.3°C 89% 6.0 mph ENE9.7 kmh ENE 9.0 mph14.5 kmh 30.18 in1022.0 mb 0.01 in0.3 mm 0.00 in0.0 mm 0.29 in7.4 mm
08:20 PM 44.5°F6.9°C 41.5°F5.3°C 89% 2.0 mph ENE3.2 kmh ENE 9.0 mph14.5 kmh 30.18 in1022.0 mb 0.01 in0.3 mm 0.00 in0.0 mm 0.29 in7.4 mm
08:22 PM 44.5°F6.9°C 41.5°F5.3°C 89% 4.0 mph E6.4 kmh E 9.0 mph14.5 kmh 30.18 in1022.0 mb 0.01 in0.3 mm 0.00 in0.0 mm 0.29 in7.4 mm
08:24 PM 44.5°F6.9°C 41.5°F5.3°C 89% 6.0 mph NE9.7 kmh NE 9.0 mph14.5 kmh 30.18 in1022.0 mb 0.01 in0.3 mm 0.00 in0.0 mm 0.29 in7.4 mm
08:26 PM 44.4°F6.9°C 41.4°F5.2°C 89% 4.0 mph ENE6.4 kmh ENE 9.0 mph14.5 kmh 30.18 in1022.0 mb 0.01 in0.3 mm 0.00 in0.0 mm 0.29 in7.4 mm
08:28 PM 44.5°F6.9°C 41.5°F5.3°C 89% 2.0 mph ENE3.2 kmh ENE 9.0 mph14.5 kmh 30.18 in1022.0 mb 0.01 in0.3 mm 0.00 in0.0 mm 0.29 in7.4 mm
08:30 PM 44.4°F6.9°C 41.4°F5.2°C 89% 6.0 mph ENE9.7 kmh ENE 9.0 mph14.5 kmh 30.18 in1022.0 mb 0.01 in0.3 mm 0.00 in0.0 mm 0.29 in7.4 mm
08:32 PM 44.5°F6.9°C 41.5°F5.3°C 89% 3.0 mph E4.8 kmh E 9.0 mph14.5 kmh 30.18 in1022.0 mb 0.01 in0.3 mm 0.00 in0.0 mm 0.29 in7.4 mm
08:34 PM 44.4°F6.9°C 41.4°F5.2°C 89% 7.0 mph ESE11.3 kmh ESE 8.0 mph12.9 kmh 30.17 in1021.7 mb 0.01 in0.3 mm 0.00 in0.0 mm 0.29 in7.4 mm
08:36 PM 44.4°F6.9°C 41.4°F5.2°C 89% 7.0 mph E11.3 kmh E 8.0 mph12.9 kmh 30.17 in1021.7 mb 0.01 in0.3 mm 0.00 in0.0 mm 0.29 in7.4 mm
08:38 PM 44.4°F6.9°C 41.4°F5.2°C 89% 2.0 mph E3.2 kmh E 9.0 mph14.5 kmh 30.18 in1022.0 mb 0.01 in0.3 mm 0.00 in0.0 mm 0.29 in7.4 mm
08:40 PM 44.4°F6.9°C 41.4°F5.2°C 89% 9.0 mph E14.5 kmh E 9.0 mph14.5 kmh 30.18 in1022.0 mb 0.01 in0.3 mm 0.00 in0.0 mm 0.29 in7.4 mm
08:42 PM 44.4°F6.9°C 41.4°F5.2°C 89% 2.0 mph E3.2 kmh E 9.0 mph14.5 kmh 30.18 in1022.0 mb 0.01 in0.3 mm 0.00 in0.0 mm 0.29 in7.4 mm
08:44 PM 44.4°F6.9°C 41.4°F5.2°C 89% 9.0 mph ENE14.5 kmh ENE 9.0 mph14.5 kmh 30.18 in1022.0 mb 0.01 in0.3 mm 0.00 in0.0 mm 0.29 in7.4 mm
08:46 PM 44.3°F6.8°C 41.3°F5.2°C 89% 6.0 mph ENE9.7 kmh ENE 9.0 mph14.5 kmh 30.18 in1022.0 mb 0.01 in0.3 mm 0.00 in0.0 mm 0.29 in7.4 mm
08:48 PM 44.3°F6.8°C 41.3°F5.2°C 89% 4.0 mph NNE6.4 kmh NNE 9.0 mph14.5 kmh 30.18 in1022.0 mb 0.01 in0.3 mm 0.00 in0.0 mm 0.29 in7.4 mm
08:50 PM 44.4°F6.9°C 41.4°F5.2°C 89% 3.0 mph ENE4.8 kmh ENE 9.0 mph14.5 kmh 30.18 in1022.0 mb 0.01 in0.3 mm 0.00 in0.0 mm 0.29 in7.4 mm
08:52 PM 44.3°F6.8°C 41.3°F5.2°C 89% 5.0 mph ENE8.0 kmh ENE 9.0 mph14.5 kmh 30.18 in1022.0 mb 0.01 in0.3 mm 0.00 in0.0 mm 0.29 in7.4 mm
08:54 PM 44.4°F6.9°C 41.4°F5.2°C 89% 2.0 mph E3.2 kmh E 9.0 mph14.5 kmh 30.18 in1022.0 mb 0.01 in0.3 mm 0.00 in0.0 mm 0.29 in7.4 mm
08:56 PM 44.3°F6.8°C 41.3°F5.2°C 89% 4.0 mph NE6.4 kmh NE 9.0 mph14.5 kmh 30.18 in1022.0 mb 0.01 in0.3 mm 0.00 in0.0 mm 0.29 in7.4 mm
08:58 PM 44.4°F6.9°C 41.4°F5.2°C 89% 3.0 mph NE4.8 kmh NE 9.0 mph14.5 kmh 30.18 in1022.0 mb 0.01 in0.3 mm 0.00 in0.0 mm 0.29 in7.4 mm
09:00 PM 44.4°F6.9°C 41.4°F5.2°C 89% 4.0 mph NE6.4 kmh NE 9.0 mph14.5 kmh 30.18 in1022.0 mb 0.01 in0.3 mm 0.00 in0.0 mm 0.29 in7.4 mm
09:02 PM 44.4°F6.9°C 41.4°F5.2°C 89% 5.0 mph ENE8.0 kmh ENE 9.0 mph14.5 kmh 30.18 in1022.0 mb 0.01 in0.3 mm 0.00 in0.0 mm 0.29 in7.4 mm
09:04 PM 44.4°F6.9°C 41.4°F5.2°C 89% 7.0 mph NE11.3 kmh NE 7.0 mph11.3 kmh 30.18 in1022.0 mb 0.01 in0.3 mm 0.00 in0.0 mm 0.29 in7.4 mm
09:06 PM 44.3°F6.8°C 41.3°F5.2°C 89% 6.0 mph ENE9.7 kmh ENE 8.0 mph12.9 kmh 30.19 in1022.4 mb 0.01 in0.3 mm 0.00 in0.0 mm 0.29 in7.4 mm
09:08 PM 44.3°F6.8°C 41.3°F5.2°C 89% 2.0 mph NE3.2 kmh NE 8.0 mph12.9 kmh 30.18 in1022.0 mb 0.01 in0.3 mm 0.00 in0.0 mm 0.29 in7.4 mm
09:10 PM 44.3°F6.8°C 41.3°F5.2°C 89% 4.0 mph NNE6.4 kmh NNE 8.0 mph12.9 kmh 30.19 in1022.4 mb 0.01 in0.3 mm 0.00 in0.0 mm 0.29 in7.4 mm
09:12 PM 44.3°F6.8°C 41.3°F5.2°C 89% 5.0 mph NE8.0 kmh NE 8.0 mph12.9 kmh 30.19 in1022.4 mb 0.01 in0.3 mm 0.00 in0.0 mm 0.29 in7.4 mm
09:14 PM 44.3°F6.8°C 41.3°F5.2°C 89% 5.0 mph NE8.0 kmh NE 8.0 mph12.9 kmh 30.19 in1022.4 mb 0.01 in0.3 mm 0.00 in0.0 mm 0.29 in7.4 mm
09:16 PM 44.3°F6.8°C 41.3°F5.2°C 89% 5.0 mph NE8.0 kmh NE 9.0 mph14.5 kmh 30.19 in1022.4 mb 0.01 in0.3 mm 0.00 in0.0 mm 0.29 in7.4 mm
09:18 PM 44.3°F6.8°C 41.3°F5.2°C 89% 6.0 mph NE9.7 kmh NE 10.0 mph16.1 kmh 30.19 in1022.4 mb 0.01 in0.3 mm 0.00 in0.0 mm 0.29 in7.4 mm
09:20 PM 44.2°F6.8°C 41.2°F5.1°C 89% 2.0 mph E3.2 kmh E 10.0 mph16.1 kmh 30.19 in1022.4 mb 0.01 in0.3 mm 0.00 in0.0 mm 0.29 in7.4 mm
09:22 PM 44.2°F6.8°C 41.2°F5.1°C 89% 4.0 mph E6.4 kmh E 10.0 mph16.1 kmh 30.19 in1022.4 mb 0.01 in0.3 mm 0.00 in0.0 mm 0.29 in7.4 mm
09:24 PM 44.3°F6.8°C 41.3°F5.2°C 89% 6.0 mph ENE9.7 kmh ENE 10.0 mph16.1 kmh 30.19 in1022.4 mb 0.01 in0.3 mm 0.00 in0.0 mm 0.29 in7.4 mm
09:26 PM 44.2°F6.8°C 41.2°F5.1°C 89% 4.0 mph ENE6.4 kmh ENE 10.0 mph16.1 kmh 30.19 in1022.4 mb 0.01 in0.3 mm 0.00 in0.0 mm 0.29 in7.4 mm
09:28 PM 44.2°F6.8°C 41.2°F5.1°C 89% 2.0 mph NE3.2 kmh NE 10.0 mph16.1 kmh 30.19 in1022.4 mb 0.01 in0.3 mm 0.00 in0.0 mm 0.29 in7.4 mm
09:30 PM 44.2°F6.8°C 41.2°F5.1°C 89% 4.0 mph ENE6.4 kmh ENE 10.0 mph16.1 kmh 30.19 in1022.4 mb 0.01 in0.3 mm 0.00 in0.0 mm 0.29 in7.4 mm
09:32 PM 44.3°F6.8°C 41.3°F5.2°C 89% 7.0 mph NE11.3 kmh NE 10.0 mph16.1 kmh 30.19 in1022.4 mb 0.02 in0.5 mm 0.30 in7.6 mm 0.30 in7.6 mm
09:34 PM 44.2°F6.8°C 41.2°F5.1°C 89% 4.0 mph E6.4 kmh E 5.0 mph8.0 kmh 30.19 in1022.4 mb 0.01 in0.3 mm 0.00 in0.0 mm 0.30 in7.6 mm
09:36 PM 44.2°F6.8°C 41.2°F5.1°C 89% 4.0 mph ENE6.4 kmh ENE 5.0 mph8.0 kmh 30.19 in1022.4 mb 0.01 in0.3 mm 0.00 in0.0 mm 0.30 in7.6 mm
09:38 PM 44.3°F6.8°C 41.3°F5.2°C 89% 2.0 mph ENE3.2 kmh ENE 5.0 mph8.0 kmh 30.19 in1022.4 mb 0.01 in0.3 mm 0.00 in0.0 mm 0.30 in7.6 mm
09:40 PM 44.2°F6.8°C 41.2°F5.1°C 89% 2.0 mph NE3.2 kmh NE 6.0 mph9.7 kmh 30.19 in1022.4 mb 0.01 in0.3 mm 0.00 in0.0 mm 0.30 in7.6 mm
09:42 PM 44.3°F6.8°C 41.3°F5.2°C 89% 1.0 mph ENE1.6 kmh ENE 6.0 mph9.7 kmh 30.19 in1022.4 mb 0.01 in0.3 mm 0.00 in0.0 mm 0.30 in7.6 mm
09:44 PM 44.3°F6.8°C 41.3°F5.2°C 89% 7.0 mph NE11.3 kmh NE 9.0 mph14.5 kmh 30.19 in1022.4 mb 0.01 in0.3 mm 0.00 in0.0 mm 0.30 in7.6 mm
09:46 PM 44.2°F6.8°C 41.2°F5.1°C 89% 4.0 mph E6.4 kmh E 9.0 mph14.5 kmh 30.19 in1022.4 mb 0.01 in0.3 mm 0.00 in0.0 mm 0.30 in7.6 mm
09:48 PM 44.2°F6.8°C 41.2°F5.1°C 89% Calm Calm 9.0 mph14.5 kmh 30.19 in1022.4 mb 0.01 in0.3 mm 0.00 in0.0 mm 0.30 in7.6 mm
09:50 PM 44.2°F6.8°C 41.2°F5.1°C 89% 3.0 mph E4.8 kmh E 9.0 mph14.5 kmh 30.20 in1022.7 mb 0.01 in0.3 mm 0.00 in0.0 mm 0.30 in7.6 mm
09:52 PM 44.2°F6.8°C 41.2°F5.1°C 89% 2.0 mph NE3.2 kmh NE 9.0 mph14.5 kmh 30.19 in1022.4 mb 0.01 in0.3 mm 0.00 in0.0 mm 0.30 in7.6 mm
09:54 PM 44.3°F6.8°C 41.3°F5.2°C 89% 2.0 mph ENE3.2 kmh ENE 9.0 mph14.5 kmh 30.19 in1022.4 mb 0.01 in0.3 mm 0.00 in0.0 mm 0.30 in7.6 mm
09:56 PM 44.3°F6.8°C 41.3°F5.2°C 89% 4.0 mph ENE6.4 kmh ENE 9.0 mph14.5 kmh 30.19 in1022.4 mb 0.01 in0.3 mm 0.00 in0.0 mm 0.30 in7.6 mm
09:58 PM 44.3°F6.8°C 41.3°F5.2°C 89% 2.0 mph ENE3.2 kmh ENE 9.0 mph14.5 kmh 30.19 in1022.4 mb 0.01 in0.3 mm 0.00 in0.0 mm 0.30 in7.6 mm
10:00 PM 44.3°F6.8°C 41.3°F5.2°C 89% 4.0 mph E6.4 kmh E 9.0 mph14.5 kmh 30.19 in1022.4 mb 0.01 in0.3 mm 0.00 in0.0 mm 0.30 in7.6 mm
10:02 PM 44.3°F6.8°C 41.3°F5.2°C 89% 2.0 mph E3.2 kmh E 9.0 mph14.5 kmh 30.19 in1022.4 mb 0.01 in0.3 mm 0.00 in0.0 mm 0.30 in7.6 mm
10:04 PM 44.3°F6.8°C 41.3°F5.2°C 89% 1.0 mph ENE1.6 kmh ENE 4.0 mph6.4 kmh 30.19 in1022.4 mb 0.01 in0.3 mm 0.00 in0.0 mm 0.30 in7.6 mm
10:06 PM 44.3°F6.8°C 41.3°F5.2°C 89% 5.0 mph ENE8.0 kmh ENE 5.0 mph8.0 kmh 30.19 in1022.4 mb 0.01 in0.3 mm 0.00 in0.0 mm 0.30 in7.6 mm
10:08 PM 44.3°F6.8°C 41.3°F5.2°C 89% 4.0 mph ENE6.4 kmh ENE 9.0 mph14.5 kmh 30.19 in1022.4 mb 0.01 in0.3 mm 0.00 in0.0 mm 0.30 in7.6 mm
10:10 PM 44.3°F6.8°C 41.3°F5.2°C 89% 3.0 mph ENE4.8 kmh ENE 9.0 mph14.5 kmh 30.19 in1022.4 mb 0.01 in0.3 mm 0.00 in0.0 mm 0.30 in7.6 mm
10:12 PM 44.3°F6.8°C 41.3°F5.2°C 89% 5.0 mph NE8.0 kmh NE 9.0 mph14.5 kmh 30.19 in1022.4 mb 0.01 in0.3 mm 0.00 in0.0 mm 0.30 in7.6 mm
10:14 PM 44.2°F6.8°C 41.2°F5.1°C 89% 1.0 mph ENE1.6 kmh ENE 9.0 mph14.5 kmh 30.19 in1022.4 mb 0.01 in0.3 mm 0.00 in0.0 mm 0.30 in7.6 mm
10:16 PM 44.2°F6.8°C 41.2°F5.1°C 89% 3.0 mph E4.8 kmh E 9.0 mph14.5 kmh 30.19 in1022.4 mb 0.01 in0.3 mm 0.00 in0.0 mm 0.30 in7.6 mm
10:18 PM 44.2°F6.8°C 41.2°F5.1°C 89% 2.0 mph E3.2 kmh E 9.0 mph14.5 kmh 30.19 in1022.4 mb 0.01 in0.3 mm 0.00 in0.0 mm 0.30 in7.6 mm
10:20 PM 44.2°F6.8°C 41.2°F5.1°C 89% 4.0 mph ENE6.4 kmh ENE 9.0 mph14.5 kmh 30.19 in1022.4 mb 0.01 in0.3 mm 0.00 in0.0 mm 0.30 in7.6 mm
10:22 PM 44.2°F6.8°C 41.2°F5.1°C 89% 3.0 mph ENE4.8 kmh ENE 9.0 mph14.5 kmh 30.19 in1022.4 mb 0.01 in0.3 mm 0.00 in0.0 mm 0.30 in7.6 mm
10:24 PM 44.1°F6.7°C 41.1°F5.1°C 89% 3.0 mph ENE4.8 kmh ENE 9.0 mph14.5 kmh 30.19 in1022.4 mb 0.01 in0.3 mm 0.00 in0.0 mm 0.30 in7.6 mm
10:26 PM 44.1°F6.7°C 41.1°F5.1°C 89% 4.0 mph ENE6.4 kmh ENE 9.0 mph14.5 kmh 30.19 in1022.4 mb 0.01 in0.3 mm 0.00 in0.0 mm 0.30 in7.6 mm
10:28 PM 44.1°F6.7°C 41.1°F5.1°C 89% 4.0 mph E6.4 kmh E 9.0 mph14.5 kmh 30.19 in1022.4 mb 0.01 in0.3 mm 0.00 in0.0 mm 0.30 in7.6 mm
10:30 PM 44.1°F6.7°C 41.1°F5.1°C 89% 3.0 mph E4.8 kmh E 9.0 mph14.5 kmh 30.19 in1022.4 mb 0.01 in0.3 mm 0.00 in0.0 mm 0.30 in7.6 mm
10:32 PM 44.1°F6.7°C 41.1°F5.1°C 89% 2.0 mph E3.2 kmh E 9.0 mph14.5 kmh 30.19 in1022.4 mb 0.01 in0.3 mm 0.00 in0.0 mm 0.30 in7.6 mm
10:34 PM 44.1°F6.7°C 41.1°F5.1°C 89% 5.0 mph ENE8.0 kmh ENE 6.0 mph9.7 kmh 30.18 in1022.0 mb 0.00 in0.0 mm 0.00 in0.0 mm 0.30 in7.6 mm
10:36 PM 44.1°F6.7°C 41.1°F5.1°C 89% 8.0 mph E12.9 kmh E 8.0 mph12.9 kmh 30.18 in1022.0 mb 0.00 in0.0 mm 0.00 in0.0 mm 0.30 in7.6 mm
10:38 PM 44.1°F6.7°C 41.1°F5.1°C 89% 4.0 mph E6.4 kmh E 8.0 mph12.9 kmh 30.18 in1022.0 mb 0.00 in0.0 mm 0.00 in0.0 mm 0.30 in7.6 mm
10:40 PM 44.1°F6.7°C 41.1°F5.1°C 89% 2.0 mph ENE3.2 kmh ENE 8.0 mph12.9 kmh 30.18 in1022.0 mb 0.00 in0.0 mm 0.00 in0.0 mm 0.30 in7.6 mm
10:42 PM 44.1°F6.7°C 41.1°F5.1°C 89% 3.0 mph E4.8 kmh E 8.0 mph12.9 kmh 30.18 in1022.0 mb 0.00 in0.0 mm 0.00 in0.0 mm 0.30 in7.6 mm
10:44 PM 44.2°F6.8°C 41.2°F5.1°C 89% 2.0 mph NE3.2 kmh NE 8.0 mph12.9 kmh 30.18 in1022.0 mb 0.00 in0.0 mm 0.00 in0.0 mm 0.30 in7.6 mm
10:46 PM 44.2°F6.8°C 41.2°F5.1°C 89% 2.0 mph E3.2 kmh E 8.0 mph12.9 kmh 30.19 in1022.4 mb 0.00 in0.0 mm 0.00 in0.0 mm 0.30 in7.6 mm
10:48 PM 44.2°F6.8°C 41.2°F5.1°C 89% 4.0 mph ENE6.4 kmh ENE 8.0 mph12.9 kmh 30.18 in1022.0 mb 0.00 in0.0 mm 0.00 in0.0 mm 0.30 in7.6 mm
10:50 PM 44.2°F6.8°C 41.2°F5.1°C 89% 3.0 mph ENE4.8 kmh ENE 8.0 mph12.9 kmh 30.18 in1022.0 mb 0.00 in0.0 mm 0.00 in0.0 mm 0.30 in7.6 mm
10:52 PM 44.1°F6.7°C 41.1°F5.1°C 89% 3.0 mph E4.8 kmh E 8.0 mph12.9 kmh 30.19 in1022.4 mb 0.00 in0.0 mm 0.00 in0.0 mm 0.30 in7.6 mm
10:54 PM 44.1°F6.7°C 41.1°F5.1°C 89% 3.0 mph E4.8 kmh E 8.0 mph12.9 kmh 30.19 in1022.4 mb 0.00 in0.0 mm 0.00 in0.0 mm 0.30 in7.6 mm
10:56 PM 44.1°F6.7°C 41.1°F5.1°C 89% 6.0 mph E9.7 kmh E 8.0 mph12.9 kmh 30.18 in1022.0 mb 0.00 in0.0 mm 0.00 in0.0 mm 0.30 in7.6 mm
10:58 PM 44.1°F6.7°C 41.1°F5.1°C 89% 3.0 mph ENE4.8 kmh ENE 8.0 mph12.9 kmh 30.18 in1022.0 mb 0.00 in0.0 mm 0.00 in0.0 mm 0.30 in7.6 mm
11:00 PM 44.1°F6.7°C 41.1°F5.1°C 89% 6.0 mph ENE9.7 kmh ENE 9.0 mph14.5 kmh 30.18 in1022.0 mb 0.00 in0.0 mm 0.00 in0.0 mm 0.30 in7.6 mm
11:02 PM 44.1°F6.7°C 41.1°F5.1°C 89% 5.0 mph ENE8.0 kmh ENE 9.0 mph14.5 kmh 30.17 in1021.7 mb 0.00 in0.0 mm 0.00 in0.0 mm 0.30 in7.6 mm
11:04 PM 44.1°F6.7°C 41.1°F5.1°C 89% 2.0 mph ENE3.2 kmh ENE 7.0 mph11.3 kmh 30.17 in1021.7 mb 0.00 in0.0 mm 0.00 in0.0 mm 0.30 in7.6 mm
11:06 PM 44.1°F6.7°C 41.1°F5.1°C 89% 5.0 mph NE8.0 kmh NE 7.0 mph11.3 kmh 30.18 in1022.0 mb 0.00 in0.0 mm 0.00 in0.0 mm 0.30 in7.6 mm
11:08 PM 44.1°F6.7°C 41.1°F5.1°C 89% 2.0 mph NE3.2 kmh NE 7.0 mph11.3 kmh 30.18 in1022.0 mb 0.00 in0.0 mm 0.00 in0.0 mm 0.30 in7.6 mm
11:10 PM 44.1°F6.7°C 41.1°F5.1°C 89% 4.0 mph E6.4 kmh E 7.0 mph11.3 kmh 30.18 in1022.0 mb 0.00 in0.0 mm 0.00 in0.0 mm 0.30 in7.6 mm
11:12 PM 44.1°F6.7°C 41.1°F5.1°C 89% 5.0 mph ENE8.0 kmh ENE 7.0 mph11.3 kmh 30.18 in1022.0 mb 0.00 in0.0 mm 0.00 in0.0 mm 0.30 in7.6 mm
11:14 PM 44.1°F6.7°C 41.1°F5.1°C 89% 4.0 mph ENE6.4 kmh ENE 7.0 mph11.3 kmh 30.18 in1022.0 mb 0.00 in0.0 mm 0.00 in0.0 mm 0.30 in7.6 mm
11:16 PM 44.1°F6.7°C 41.1°F5.1°C 89% 6.0 mph NE9.7 kmh NE 8.0 mph12.9 kmh 30.18 in1022.0 mb 0.00 in0.0 mm 0.00 in0.0 mm 0.30 in7.6 mm
11:18 PM 44.0°F6.7°C 41.0°F5.0°C 89% 4.0 mph ENE6.4 kmh ENE 9.0 mph14.5 kmh 30.18 in1022.0 mb 0.00 in0.0 mm 0.00 in0.0 mm 0.30 in7.6 mm
11:20 PM 44.0°F6.7°C 41.0°F5.0°C 89% 3.0 mph NE4.8 kmh NE 9.0 mph14.5 kmh 30.18 in1022.0 mb 0.00 in0.0 mm 0.00 in0.0 mm 0.30 in7.6 mm
11:22 PM 44.0°F6.7°C 41.0°F5.0°C 89% 4.0 mph NE6.4 kmh NE 9.0 mph14.5 kmh 30.19 in1022.4 mb 0.00 in0.0 mm 0.00 in0.0 mm 0.30 in7.6 mm
11:24 PM 44.0°F6.7°C 41.0°F5.0°C 89% 3.0 mph NE4.8 kmh NE 9.0 mph14.5 kmh 30.19 in1022.4 mb 0.00 in0.0 mm 0.00 in0.0 mm 0.30 in7.6 mm
11:26 PM 44.0°F6.7°C 41.0°F5.0°C 89% 4.0 mph NE6.4 kmh NE 9.0 mph14.5 kmh 30.18 in1022.0 mb 0.00 in0.0 mm 0.00 in0.0 mm 0.30 in7.6 mm
11:28 PM 44.0°F6.7°C 41.0°F5.0°C 89% 2.0 mph ENE3.2 kmh ENE 9.0 mph14.5 kmh 30.18 in1022.0 mb 0.00 in0.0 mm 0.00 in0.0 mm 0.30 in7.6 mm
11:30 PM 44.1°F6.7°C 41.1°F5.1°C 89% 3.0 mph ENE4.8 kmh ENE 9.0 mph14.5 kmh 30.18 in1022.0 mb 0.00 in0.0 mm 0.00 in0.0 mm 0.30 in7.6 mm
11:32 PM 44.1°F6.7°C 41.1°F5.1°C 89% 5.0 mph ENE8.0 kmh ENE 9.0 mph14.5 kmh 30.18 in1022.0 mb 0.00 in0.0 mm 0.00 in0.0 mm 0.30 in7.6 mm
11:34 PM 44.1°F6.7°C 41.1°F5.1°C 89% 5.0 mph ENE8.0 kmh ENE 9.0 mph14.5 kmh 30.18 in1022.0 mb 0.00 in0.0 mm 0.00 in0.0 mm 0.30 in7.6 mm
11:36 PM 44.0°F6.7°C 41.0°F5.0°C 89% 3.0 mph ENE4.8 kmh ENE 9.0 mph14.5 kmh 30.18 in1022.0 mb 0.00 in0.0 mm 0.00 in0.0 mm 0.30 in7.6 mm
11:38 PM 44.0°F6.7°C 41.0°F5.0°C 89% 1.0 mph ENE1.6 kmh ENE 9.0 mph14.5 kmh 30.18 in1022.0 mb 0.00 in0.0 mm 0.00 in0.0 mm 0.30 in7.6 mm
11:40 PM 44.1°F6.7°C 41.1°F5.1°C 89% 3.0 mph NE4.8 kmh NE 9.0 mph14.5 kmh 30.18 in1022.0 mb 0.00 in0.0 mm 0.00 in0.0 mm 0.30 in7.6 mm
11:42 PM 44.1°F6.7°C 41.1°F5.1°C 89% 3.0 mph NE4.8 kmh NE 9.0 mph14.5 kmh 30.18 in1022.0 mb 0.00 in0.0 mm 0.00 in0.0 mm 0.30 in7.6 mm
11:44 PM 44.1°F6.7°C 41.1°F5.1°C 89% 2.0 mph NE3.2 kmh NE 9.0 mph14.5 kmh 30.18 in1022.0 mb 0.00 in0.0 mm 0.00 in0.0 mm 0.30 in7.6 mm
11:46 PM 44.2°F6.8°C 41.2°F5.1°C 89% 5.0 mph NE8.0 kmh NE 9.0 mph14.5 kmh 30.18 in1022.0 mb 0.00 in0.0 mm 0.00 in0.0 mm 0.30 in7.6 mm
11:48 PM 44.1°F6.7°C 41.1°F5.1°C 89% 3.0 mph ENE4.8 kmh ENE 9.0 mph14.5 kmh 30.18 in1022.0 mb 0.00 in0.0 mm 0.00 in0.0 mm 0.30 in7.6 mm
11:50 PM 44.2°F6.8°C 41.2°F5.1°C 89% 4.0 mph NE6.4 kmh NE 9.0 mph14.5 kmh 30.18 in1022.0 mb 0.00 in0.0 mm 0.00 in0.0 mm 0.30 in7.6 mm
11:52 PM 44.2°F6.8°C 41.2°F5.1°C 89% 3.0 mph NE4.8 kmh NE 9.0 mph14.5 kmh 30.17 in1021.7 mb 0.00 in0.0 mm 0.00 in0.0 mm 0.30 in7.6 mm
11:54 PM 44.2°F6.8°C 41.2°F5.1°C 89% 2.0 mph NE3.2 kmh NE 9.0 mph14.5 kmh 30.17 in1021.7 mb 0.00 in0.0 mm 0.00 in0.0 mm 0.30 in7.6 mm
11:56 PM 44.2°F6.8°C 41.2°F5.1°C 89% 3.0 mph NNE4.8 kmh NNE 9.0 mph14.5 kmh 30.17 in1021.7 mb 0.00 in0.0 mm 0.00 in0.0 mm 0.30 in7.6 mm
11:58 PM 44.2°F6.8°C 41.2°F5.1°C 89% 3.0 mph NE4.8 kmh NE 9.0 mph14.5 kmh 30.17 in1021.7 mb 0.00 in0.0 mm 0.00 in0.0 mm 0.30 in7.6 mm